<?xml version="1.0" encoding="UTF-8" standalone="no" ?>
<gpx xmlns="http://www.topografix.com/GPX/1/1" xmlns:xsi="http://www.w3.org/2001/XMLSchema-instance" xsi:schemaLocation="http://www.topografix.com/GPX/1/1 http://www.topografix.com/GPX/1/1/gpx.xsd" version="1.1" creator="VisuGPX - https://www.visugpx.com">
  <metadata>
    <name>Ultra-Trail® du Haut-Giffre 18KM  - Montee de Gers</name>
    <desc><![CDATA[Parcours créé sur Trace de Trail]]></desc>
  </metadata>
  <trk>
    <name><![CDATA[Ultra-Trail® du Haut-Giffre 2023 - Montee de Gers_1]]></name>
    <extensions>
      <line xmlns="http://www.topografix.com/GPX/gpx_style/0/2">
        <color>0000FF</color>
        <width>4</width>
      </line>
    </extensions>
    <trkseg>
      <trkpt lat="46.05394" lon="6.77392">
        <ele>758</ele>
        <time>2024-05-14T11:49:22.000Z</time>
      </trkpt>
      <trkpt lat="46.05399" lon="6.77362">
        <ele>758</ele>
        <time>2024-05-14T11:49:34.953Z</time>
      </trkpt>
      <trkpt lat="46.05414" lon="6.77329">
        <ele>757</ele>
        <time>2024-05-14T11:49:49.791Z</time>
      </trkpt>
      <trkpt lat="46.05427" lon="6.77302">
        <ele>757</ele>
        <time>2024-05-14T11:50:03.588Z</time>
      </trkpt>
      <trkpt lat="46.05396" lon="6.77201">
        <ele>755</ele>
        <time>2024-05-14T11:50:46.430Z</time>
      </trkpt>
      <trkpt lat="46.05382" lon="6.77164">
        <ele>754</ele>
        <time>2024-05-14T11:51:02.390Z</time>
      </trkpt>
      <trkpt lat="46.05362" lon="6.77106">
        <ele>753</ele>
        <time>2024-05-14T11:51:27.805Z</time>
      </trkpt>
      <trkpt lat="46.05348" lon="6.77069">
        <ele>753</ele>
        <time>2024-05-14T11:51:45.498Z</time>
      </trkpt>
      <trkpt lat="46.05327" lon="6.7701">
        <ele>752</ele>
        <time>2024-05-14T11:52:11.559Z</time>
      </trkpt>
      <trkpt lat="46.05315" lon="6.76979">
        <ele>752</ele>
        <time>2024-05-14T11:52:26.462Z</time>
      </trkpt>
      <trkpt lat="46.05302" lon="6.76944">
        <ele>752</ele>
        <time>2024-05-14T11:52:43.128Z</time>
      </trkpt>
      <trkpt lat="46.05288" lon="6.76922">
        <ele>752</ele>
        <time>2024-05-14T11:52:55.660Z</time>
      </trkpt>
      <trkpt lat="46.05264" lon="6.76913">
        <ele>752</ele>
        <time>2024-05-14T11:53:10.663Z</time>
      </trkpt>
      <trkpt lat="46.05244" lon="6.76897">
        <ele>752</ele>
        <time>2024-05-14T11:53:24.503Z</time>
      </trkpt>
      <trkpt lat="46.05232" lon="6.7686">
        <ele>752</ele>
        <time>2024-05-14T11:53:41.650Z</time>
      </trkpt>
      <trkpt lat="46.05215" lon="6.7682">
        <ele>752</ele>
        <time>2024-05-14T11:54:01.343Z</time>
      </trkpt>
      <trkpt lat="46.05185" lon="6.7678">
        <ele>753</ele>
        <time>2024-05-14T11:54:28.035Z</time>
      </trkpt>
      <trkpt lat="46.05155" lon="6.76744">
        <ele>754</ele>
        <time>2024-05-14T11:54:53.624Z</time>
      </trkpt>
      <trkpt lat="46.05129" lon="6.76717">
        <ele>755</ele>
        <time>2024-05-14T11:55:15.008Z</time>
      </trkpt>
      <trkpt lat="46.05109" lon="6.76697">
        <ele>755</ele>
        <time>2024-05-14T11:55:29.736Z</time>
      </trkpt>
      <trkpt lat="46.05086" lon="6.76675">
        <ele>755</ele>
        <time>2024-05-14T11:55:46.437Z</time>
      </trkpt>
      <trkpt lat="46.05067" lon="6.76658">
        <ele>756</ele>
        <time>2024-05-14T11:56:02.024Z</time>
      </trkpt>
      <trkpt lat="46.05047" lon="6.7664">
        <ele>756</ele>
        <time>2024-05-14T11:56:16.290Z</time>
      </trkpt>
      <trkpt lat="46.05024" lon="6.76621">
        <ele>757</ele>
        <time>2024-05-14T11:56:34.354Z</time>
      </trkpt>
      <trkpt lat="46.04998" lon="6.76608">
        <ele>757</ele>
        <time>2024-05-14T11:56:51.003Z</time>
      </trkpt>
      <trkpt lat="46.04971" lon="6.76602">
        <ele>758</ele>
        <time>2024-05-14T11:57:09.550Z</time>
      </trkpt>
      <trkpt lat="46.04942" lon="6.76596">
        <ele>758</ele>
        <time>2024-05-14T11:57:27.274Z</time>
      </trkpt>
      <trkpt lat="46.04921" lon="6.76587">
        <ele>759</ele>
        <time>2024-05-14T11:57:42.591Z</time>
      </trkpt>
      <trkpt lat="46.04905" lon="6.76573">
        <ele>760</ele>
        <time>2024-05-14T11:57:56.015Z</time>
      </trkpt>
      <trkpt lat="46.0488" lon="6.7655">
        <ele>760</ele>
        <time>2024-05-14T11:58:13.959Z</time>
      </trkpt>
      <trkpt lat="46.04855" lon="6.76539">
        <ele>761</ele>
        <time>2024-05-14T11:58:31.800Z</time>
      </trkpt>
      <trkpt lat="46.0483" lon="6.76529">
        <ele>762</ele>
        <time>2024-05-14T11:58:49.525Z</time>
      </trkpt>
      <trkpt lat="46.04809" lon="6.76515">
        <ele>764</ele>
        <time>2024-05-14T11:59:08.065Z</time>
      </trkpt>
      <trkpt lat="46.04772" lon="6.76471">
        <ele>764</ele>
        <time>2024-05-14T11:59:37.088Z</time>
      </trkpt>
      <trkpt lat="46.04764" lon="6.7644">
        <ele>762</ele>
        <time>2024-05-14T11:59:49.239Z</time>
      </trkpt>
      <trkpt lat="46.04769" lon="6.7641">
        <ele>763</ele>
        <time>2024-05-14T12:00:04.261Z</time>
      </trkpt>
      <trkpt lat="46.04775" lon="6.76377">
        <ele>765</ele>
        <time>2024-05-14T12:00:23.104Z</time>
      </trkpt>
      <trkpt lat="46.04767" lon="6.76348">
        <ele>768</ele>
        <time>2024-05-14T12:00:43.974Z</time>
      </trkpt>
      <trkpt lat="46.04735" lon="6.76334">
        <ele>770</ele>
        <time>2024-05-14T12:01:08.467Z</time>
      </trkpt>
      <trkpt lat="46.04716" lon="6.76326">
        <ele>774</ele>
        <time>2024-05-14T12:01:32.738Z</time>
      </trkpt>
      <trkpt lat="46.04695" lon="6.76316">
        <ele>777</ele>
        <time>2024-05-14T12:01:53.827Z</time>
      </trkpt>
      <trkpt lat="46.04665" lon="6.76306">
        <ele>782</ele>
        <time>2024-05-14T12:02:26.242Z</time>
      </trkpt>
      <trkpt lat="46.04633" lon="6.76303">
        <ele>784</ele>
        <time>2024-05-14T12:02:49.929Z</time>
      </trkpt>
      <trkpt lat="46.04608" lon="6.76296">
        <ele>790</ele>
        <time>2024-05-14T12:03:25.619Z</time>
      </trkpt>
      <trkpt lat="46.04578" lon="6.7629">
        <ele>796</ele>
        <time>2024-05-14T12:04:02.183Z</time>
      </trkpt>
      <trkpt lat="46.04554" lon="6.76279">
        <ele>801</ele>
        <time>2024-05-14T12:04:32.638Z</time>
      </trkpt>
      <trkpt lat="46.04526" lon="6.76263">
        <ele>804</ele>
        <time>2024-05-14T12:04:57.896Z</time>
      </trkpt>
      <trkpt lat="46.045" lon="6.76247">
        <ele>811</ele>
        <time>2024-05-14T12:05:39.497Z</time>
      </trkpt>
      <trkpt lat="46.04471" lon="6.76228">
        <ele>817</ele>
        <time>2024-05-14T12:06:16.523Z</time>
      </trkpt>
      <trkpt lat="46.04452" lon="6.76217">
        <ele>819</ele>
        <time>2024-05-14T12:06:33.579Z</time>
      </trkpt>
      <trkpt lat="46.04434" lon="6.76208">
        <ele>822</ele>
        <time>2024-05-14T12:06:53.270Z</time>
      </trkpt>
      <trkpt lat="46.04393" lon="6.76199">
        <ele>827</ele>
        <time>2024-05-14T12:07:30.719Z</time>
      </trkpt>
      <trkpt lat="46.04369" lon="6.76187">
        <ele>831</ele>
        <time>2024-05-14T12:07:56.973Z</time>
      </trkpt>
      <trkpt lat="46.04349" lon="6.76166">
        <ele>838</ele>
        <time>2024-05-14T12:08:39.090Z</time>
      </trkpt>
      <trkpt lat="46.04322" lon="6.76157">
        <ele>841</ele>
        <time>2024-05-14T12:09:03.045Z</time>
      </trkpt>
      <trkpt lat="46.04298" lon="6.76157">
        <ele>843</ele>
        <time>2024-05-14T12:09:22.071Z</time>
      </trkpt>
      <trkpt lat="46.04274" lon="6.76158">
        <ele>845</ele>
        <time>2024-05-14T12:09:41.103Z</time>
      </trkpt>
      <trkpt lat="46.04254" lon="6.76155">
        <ele>846</ele>
        <time>2024-05-14T12:09:55.350Z</time>
      </trkpt>
      <trkpt lat="46.04237" lon="6.76141">
        <ele>849</ele>
        <time>2024-05-14T12:10:15.268Z</time>
      </trkpt>
      <trkpt lat="46.04219" lon="6.76133">
        <ele>852</ele>
        <time>2024-05-14T12:10:34.867Z</time>
      </trkpt>
      <trkpt lat="46.04205" lon="6.76112">
        <ele>856</ele>
        <time>2024-05-14T12:10:59.247Z</time>
      </trkpt>
      <trkpt lat="46.04219" lon="6.76084">
        <ele>867</ele>
        <time>2024-05-14T12:12:15.325Z</time>
      </trkpt>
      <trkpt lat="46.04238" lon="6.7606">
        <ele>878</ele>
        <time>2024-05-14T12:13:33.447Z</time>
      </trkpt>
      <trkpt lat="46.04255" lon="6.7603">
        <ele>884</ele>
        <time>2024-05-14T12:14:09.286Z</time>
      </trkpt>
      <trkpt lat="46.04271" lon="6.76012">
        <ele>891</ele>
        <time>2024-05-14T12:14:53.998Z</time>
      </trkpt>
      <trkpt lat="46.04294" lon="6.76003">
        <ele>895</ele>
        <time>2024-05-14T12:15:19.608Z</time>
      </trkpt>
      <trkpt lat="46.04296" lon="6.75982">
        <ele>907</ele>
        <time>2024-05-14T12:16:06.338Z</time>
      </trkpt>
      <trkpt lat="46.04273" lon="6.75984">
        <ele>908</ele>
        <time>2024-05-14T12:16:22.329Z</time>
      </trkpt>
      <trkpt lat="46.04241" lon="6.75984">
        <ele>915</ele>
        <time>2024-05-14T12:17:04.241Z</time>
      </trkpt>
      <trkpt lat="46.04216" lon="6.75983">
        <ele>918</ele>
        <time>2024-05-14T12:17:26.775Z</time>
      </trkpt>
      <trkpt lat="46.04191" lon="6.75997">
        <ele>921</ele>
        <time>2024-05-14T12:17:50.256Z</time>
      </trkpt>
      <trkpt lat="46.0417" lon="6.76006">
        <ele>921</ele>
        <time>2024-05-14T12:18:03.510Z</time>
      </trkpt>
      <trkpt lat="46.04148" lon="6.76003">
        <ele>923</ele>
        <time>2024-05-14T12:18:21.466Z</time>
      </trkpt>
      <trkpt lat="46.04131" lon="6.75991">
        <ele>929</ele>
        <time>2024-05-14T12:18:58.609Z</time>
      </trkpt>
      <trkpt lat="46.04151" lon="6.75981">
        <ele>938</ele>
        <time>2024-05-14T12:20:01.929Z</time>
      </trkpt>
      <trkpt lat="46.04155" lon="6.75961">
        <ele>950</ele>
        <time>2024-05-14T12:20:47.816Z</time>
      </trkpt>
      <trkpt lat="46.04134" lon="6.7594">
        <ele>962</ele>
        <time>2024-05-14T12:22:09.008Z</time>
      </trkpt>
      <trkpt lat="46.04117" lon="6.75919">
        <ele>973</ele>
        <time>2024-05-14T12:23:20.133Z</time>
      </trkpt>
      <trkpt lat="46.04094" lon="6.75894">
        <ele>982</ele>
        <time>2024-05-14T12:24:15.595Z</time>
      </trkpt>
      <trkpt lat="46.04083" lon="6.7586">
        <ele>996</ele>
        <time>2024-05-14T12:25:38.296Z</time>
      </trkpt>
      <trkpt lat="46.04073" lon="6.75837">
        <ele>1005</ele>
        <time>2024-05-14T12:26:38.129Z</time>
      </trkpt>
      <trkpt lat="46.0407" lon="6.75801">
        <ele>1014</ele>
        <time>2024-05-14T12:27:36.529Z</time>
      </trkpt>
      <trkpt lat="46.04068" lon="6.75759">
        <ele>1028</ele>
        <time>2024-05-14T12:29:09.344Z</time>
      </trkpt>
      <trkpt lat="46.04058" lon="6.75736">
        <ele>1031</ele>
        <time>2024-05-14T12:29:28.943Z</time>
      </trkpt>
      <trkpt lat="46.04036" lon="6.75717">
        <ele>1036</ele>
        <time>2024-05-14T12:29:59.528Z</time>
      </trkpt>
      <trkpt lat="46.04026" lon="6.7569">
        <ele>1040</ele>
        <time>2024-05-14T12:30:24.213Z</time>
      </trkpt>
      <trkpt lat="46.04016" lon="6.75663">
        <ele>1046</ele>
        <time>2024-05-14T12:31:00.305Z</time>
      </trkpt>
      <trkpt lat="46.04013" lon="6.7563">
        <ele>1052</ele>
        <time>2024-05-14T12:31:36.031Z</time>
      </trkpt>
      <trkpt lat="46.04012" lon="6.75596">
        <ele>1060</ele>
        <time>2024-05-14T12:32:26.755Z</time>
      </trkpt>
      <trkpt lat="46.04008" lon="6.75561">
        <ele>1067</ele>
        <time>2024-05-14T12:33:08.912Z</time>
      </trkpt>
      <trkpt lat="46.04001" lon="6.75532">
        <ele>1073</ele>
        <time>2024-05-14T12:33:44.983Z</time>
      </trkpt>
      <trkpt lat="46.03978" lon="6.75531">
        <ele>1083</ele>
        <time>2024-05-14T12:34:55.958Z</time>
      </trkpt>
      <trkpt lat="46.03965" lon="6.75554">
        <ele>1083</ele>
        <time>2024-05-14T12:35:08.414Z</time>
      </trkpt>
      <trkpt lat="46.03957" lon="6.75582">
        <ele>1083</ele>
        <time>2024-05-14T12:35:21.129Z</time>
      </trkpt>
      <trkpt lat="46.03939" lon="6.75593">
        <ele>1089</ele>
        <time>2024-05-14T12:35:57.912Z</time>
      </trkpt>
      <trkpt lat="46.03924" lon="6.75577">
        <ele>1095</ele>
        <time>2024-05-14T12:36:35.229Z</time>
      </trkpt>
      <trkpt lat="46.03907" lon="6.75562">
        <ele>1103</ele>
        <time>2024-05-14T12:37:30.063Z</time>
      </trkpt>
      <trkpt lat="46.03885" lon="6.75547">
        <ele>1112</ele>
        <time>2024-05-14T12:38:29.371Z</time>
      </trkpt>
      <trkpt lat="46.03868" lon="6.75523">
        <ele>1120</ele>
        <time>2024-05-14T12:39:19.944Z</time>
      </trkpt>
      <trkpt lat="46.03874" lon="6.75492">
        <ele>1122</ele>
        <time>2024-05-14T12:39:38.034Z</time>
      </trkpt>
      <trkpt lat="46.03893" lon="6.75479">
        <ele>1123</ele>
        <time>2024-05-14T12:39:52.830Z</time>
      </trkpt>
      <trkpt lat="46.03902" lon="6.75442">
        <ele>1125</ele>
        <time>2024-05-14T12:40:13.697Z</time>
      </trkpt>
      <trkpt lat="46.03899" lon="6.75415">
        <ele>1130</ele>
        <time>2024-05-14T12:40:43.501Z</time>
      </trkpt>
      <trkpt lat="46.03911" lon="6.75383">
        <ele>1135</ele>
        <time>2024-05-14T12:41:13.972Z</time>
      </trkpt>
      <trkpt lat="46.03921" lon="6.75354">
        <ele>1136</ele>
        <time>2024-05-14T12:41:29.627Z</time>
      </trkpt>
      <trkpt lat="46.03919" lon="6.75334">
        <ele>1147</ele>
        <time>2024-05-14T12:42:14.177Z</time>
      </trkpt>
      <trkpt lat="46.03929" lon="6.753">
        <ele>1149</ele>
        <time>2024-05-14T12:42:34.134Z</time>
      </trkpt>
      <trkpt lat="46.03929" lon="6.75264">
        <ele>1153</ele>
        <time>2024-05-14T12:43:00.213Z</time>
      </trkpt>
      <trkpt lat="46.03914" lon="6.75234">
        <ele>1161</ele>
        <time>2024-05-14T12:43:49.481Z</time>
      </trkpt>
      <trkpt lat="46.039" lon="6.75206">
        <ele>1175</ele>
        <time>2024-05-14T12:45:05.561Z</time>
      </trkpt>
      <trkpt lat="46.03887" lon="6.75179">
        <ele>1188</ele>
        <time>2024-05-14T12:46:18.007Z</time>
      </trkpt>
      <trkpt lat="46.03885" lon="6.7515">
        <ele>1188</ele>
        <time>2024-05-14T12:46:30.245Z</time>
      </trkpt>
      <trkpt lat="46.03891" lon="6.75106">
        <ele>1189</ele>
        <time>2024-05-14T12:46:51.076Z</time>
      </trkpt>
      <trkpt lat="46.03891" lon="6.75055">
        <ele>1194</ele>
        <time>2024-05-14T12:47:25.529Z</time>
      </trkpt>
      <trkpt lat="46.03888" lon="6.75002">
        <ele>1200</ele>
        <time>2024-05-14T12:48:04.411Z</time>
      </trkpt>
      <trkpt lat="46.03891" lon="6.74964">
        <ele>1206</ele>
        <time>2024-05-14T12:48:40.206Z</time>
      </trkpt>
      <trkpt lat="46.03901" lon="6.74928">
        <ele>1208</ele>
        <time>2024-05-14T12:49:00.900Z</time>
      </trkpt>
      <trkpt lat="46.03894" lon="6.749">
        <ele>1212</ele>
        <time>2024-05-14T12:49:25.408Z</time>
      </trkpt>
      <trkpt lat="46.03884" lon="6.74873">
        <ele>1230</ele>
        <time>2024-05-14T12:50:32.880Z</time>
      </trkpt>
      <trkpt lat="46.03874" lon="6.74833">
        <ele>1241</ele>
        <time>2024-05-14T12:51:45.641Z</time>
      </trkpt>
      <trkpt lat="46.03858" lon="6.74805">
        <ele>1251</ele>
        <time>2024-05-14T12:52:53.847Z</time>
      </trkpt>
      <trkpt lat="46.03846" lon="6.74778">
        <ele>1251</ele>
        <time>2024-05-14T12:53:07.311Z</time>
      </trkpt>
      <trkpt lat="46.03839" lon="6.74749">
        <ele>1255</ele>
        <time>2024-05-14T12:53:32.019Z</time>
      </trkpt>
      <trkpt lat="46.03824" lon="6.74726">
        <ele>1264</ele>
        <time>2024-05-14T12:54:34.390Z</time>
      </trkpt>
      <trkpt lat="46.03804" lon="6.74705">
        <ele>1272</ele>
        <time>2024-05-14T12:55:24.241Z</time>
      </trkpt>
      <trkpt lat="46.03786" lon="6.74687">
        <ele>1276</ele>
        <time>2024-05-14T12:55:49.146Z</time>
      </trkpt>
      <trkpt lat="46.03777" lon="6.74655">
        <ele>1270</ele>
        <time>2024-05-14T12:56:01.834Z</time>
      </trkpt>
      <trkpt lat="46.03803" lon="6.74645">
        <ele>1271</ele>
        <time>2024-05-14T12:56:20.136Z</time>
      </trkpt>
      <trkpt lat="46.03831" lon="6.74639">
        <ele>1273</ele>
        <time>2024-05-14T12:56:41.634Z</time>
      </trkpt>
      <trkpt lat="46.03864" lon="6.74624">
        <ele>1281</ele>
        <time>2024-05-14T12:57:29.273Z</time>
      </trkpt>
      <trkpt lat="46.03881" lon="6.74609">
        <ele>1289</ele>
        <time>2024-05-14T12:58:24.106Z</time>
      </trkpt>
      <trkpt lat="46.03895" lon="6.74585">
        <ele>1301</ele>
        <time>2024-05-14T12:59:33.223Z</time>
      </trkpt>
      <trkpt lat="46.0391" lon="6.74564">
        <ele>1301</ele>
        <time>2024-05-14T12:59:45.877Z</time>
      </trkpt>
      <trkpt lat="46.03929" lon="6.74573">
        <ele>1302</ele>
        <time>2024-05-14T13:00:00.059Z</time>
      </trkpt>
      <trkpt lat="46.03951" lon="6.74567">
        <ele>1304</ele>
        <time>2024-05-14T13:00:18.178Z</time>
      </trkpt>
      <trkpt lat="46.03972" lon="6.74592">
        <ele>1307</ele>
        <time>2024-05-14T13:00:41.882Z</time>
      </trkpt>
      <trkpt lat="46.03994" lon="6.74626">
        <ele>1308</ele>
        <time>2024-05-14T13:01:03.395Z</time>
      </trkpt>
      <trkpt lat="46.04008" lon="6.74645">
        <ele>1309</ele>
        <time>2024-05-14T13:01:17.123Z</time>
      </trkpt>
      <trkpt lat="46.04025" lon="6.74677">
        <ele>1313</ele>
        <time>2024-05-14T13:01:44.523Z</time>
      </trkpt>
      <trkpt lat="46.04043" lon="6.74711">
        <ele>1315</ele>
        <time>2024-05-14T13:02:06.818Z</time>
      </trkpt>
      <trkpt lat="46.04048" lon="6.74743">
        <ele>1317</ele>
        <time>2024-05-14T13:02:25.149Z</time>
      </trkpt>
      <trkpt lat="46.04065" lon="6.74777">
        <ele>1323</ele>
        <time>2024-05-14T13:03:01.407Z</time>
      </trkpt>
      <trkpt lat="46.04085" lon="6.74796">
        <ele>1327</ele>
        <time>2024-05-14T13:03:27.067Z</time>
      </trkpt>
      <trkpt lat="46.04109" lon="6.74801">
        <ele>1332</ele>
        <time>2024-05-14T13:03:57.285Z</time>
      </trkpt>
      <trkpt lat="46.04113" lon="6.74774">
        <ele>1336</ele>
        <time>2024-05-14T13:04:21.406Z</time>
      </trkpt>
      <trkpt lat="46.04097" lon="6.74736">
        <ele>1340</ele>
        <time>2024-05-14T13:04:50.190Z</time>
      </trkpt>
      <trkpt lat="46.04092" lon="6.74706">
        <ele>1346</ele>
        <time>2024-05-14T13:05:26.232Z</time>
      </trkpt>
      <trkpt lat="46.04087" lon="6.74678">
        <ele>1349</ele>
        <time>2024-05-14T13:05:46.366Z</time>
      </trkpt>
      <trkpt lat="46.04072" lon="6.74645">
        <ele>1354</ele>
        <time>2024-05-14T13:06:17.494Z</time>
      </trkpt>
      <trkpt lat="46.0406" lon="6.74602">
        <ele>1357</ele>
        <time>2024-05-14T13:06:43.882Z</time>
      </trkpt>
      <trkpt lat="46.04053" lon="6.74573">
        <ele>1365</ele>
        <time>2024-05-14T13:07:36.978Z</time>
      </trkpt>
      <trkpt lat="46.04047" lon="6.74544">
        <ele>1365</ele>
        <time>2024-05-14T13:07:49.685Z</time>
      </trkpt>
      <trkpt lat="46.04047" lon="6.7451">
        <ele>1368</ele>
        <time>2024-05-14T13:08:11.504Z</time>
      </trkpt>
      <trkpt lat="46.04044" lon="6.74483">
        <ele>1373</ele>
        <time>2024-05-14T13:08:41.308Z</time>
      </trkpt>
      <trkpt lat="46.04028" lon="6.74452">
        <ele>1374</ele>
        <time>2024-05-14T13:08:59.554Z</time>
      </trkpt>
      <trkpt lat="46.04015" lon="6.74424">
        <ele>1378</ele>
        <time>2024-05-14T13:09:24.990Z</time>
      </trkpt>
      <trkpt lat="46.04005" lon="6.74377">
        <ele>1383</ele>
        <time>2024-05-14T13:09:58.851Z</time>
      </trkpt>
      <trkpt lat="46.03992" lon="6.74332">
        <ele>1388</ele>
        <time>2024-05-14T13:10:32.582Z</time>
      </trkpt>
      <trkpt lat="46.03984" lon="6.74307">
        <ele>1393</ele>
        <time>2024-05-14T13:11:02.369Z</time>
      </trkpt>
      <trkpt lat="46.03974" lon="6.74271">
        <ele>1399</ele>
        <time>2024-05-14T13:11:38.214Z</time>
      </trkpt>
      <trkpt lat="46.03967" lon="6.74245">
        <ele>1405</ele>
        <time>2024-05-14T13:12:15.102Z</time>
      </trkpt>
      <trkpt lat="46.03994" lon="6.74252">
        <ele>1410</ele>
        <time>2024-05-14T13:12:46.248Z</time>
      </trkpt>
      <trkpt lat="46.04025" lon="6.7426">
        <ele>1418</ele>
        <time>2024-05-14T13:13:33.824Z</time>
      </trkpt>
      <trkpt lat="46.0403" lon="6.74237">
        <ele>1421</ele>
        <time>2024-05-14T13:13:52.605Z</time>
      </trkpt>
      <trkpt lat="46.04009" lon="6.74214">
        <ele>1425</ele>
        <time>2024-05-14T13:14:19.282Z</time>
      </trkpt>
      <trkpt lat="46.03999" lon="6.74185">
        <ele>1432</ele>
        <time>2024-05-14T13:15:02.379Z</time>
      </trkpt>
      <trkpt lat="46.03988" lon="6.74159">
        <ele>1442</ele>
        <time>2024-05-14T13:16:09.509Z</time>
      </trkpt>
      <trkpt lat="46.03959" lon="6.74139">
        <ele>1448</ele>
        <time>2024-05-14T13:16:46.630Z</time>
      </trkpt>
      <trkpt lat="46.03932" lon="6.74125">
        <ele>1451</ele>
        <time>2024-05-14T13:17:11.112Z</time>
      </trkpt>
      <trkpt lat="46.03911" lon="6.74104">
        <ele>1458</ele>
        <time>2024-05-14T13:17:53.017Z</time>
      </trkpt>
      <trkpt lat="46.03891" lon="6.74097">
        <ele>1462</ele>
        <time>2024-05-14T13:18:17.503Z</time>
      </trkpt>
      <trkpt lat="46.03872" lon="6.74099">
        <ele>1463</ele>
        <time>2024-05-14T13:18:31.122Z</time>
      </trkpt>
      <trkpt lat="46.03851" lon="6.74125">
        <ele>1465</ele>
        <time>2024-05-14T13:18:52.263Z</time>
      </trkpt>
      <trkpt lat="46.03827" lon="6.74137">
        <ele>1471</ele>
        <time>2024-05-14T13:19:27.949Z</time>
      </trkpt>
      <trkpt lat="46.03807" lon="6.7414">
        <ele>1473</ele>
        <time>2024-05-14T13:19:44.803Z</time>
      </trkpt>
      <trkpt lat="46.03786" lon="6.7414">
        <ele>1476</ele>
        <time>2024-05-14T13:20:05.362Z</time>
      </trkpt>
      <trkpt lat="46.03761" lon="6.74139">
        <ele>1480</ele>
        <time>2024-05-14T13:20:31.449Z</time>
      </trkpt>
      <trkpt lat="46.0374" lon="6.7414">
        <ele>1483</ele>
        <time>2024-05-14T13:20:52.014Z</time>
      </trkpt>
      <trkpt lat="46.03715" lon="6.74139">
        <ele>1486</ele>
        <time>2024-05-14T13:21:14.548Z</time>
      </trkpt>
      <trkpt lat="46.03696" lon="6.74135">
        <ele>1486</ele>
        <time>2024-05-14T13:21:26.165Z</time>
      </trkpt>
      <trkpt lat="46.03673" lon="6.74128">
        <ele>1487</ele>
        <time>2024-05-14T13:21:42.433Z</time>
      </trkpt>
      <trkpt lat="46.03653" lon="6.74112">
        <ele>1487</ele>
        <time>2024-05-14T13:21:56.274Z</time>
      </trkpt>
      <trkpt lat="46.03637" lon="6.74094">
        <ele>1487</ele>
        <time>2024-05-14T13:22:08.555Z</time>
      </trkpt>
      <trkpt lat="46.0362" lon="6.74079">
        <ele>1483</ele>
        <time>2024-05-14T13:22:19.108Z</time>
      </trkpt>
      <trkpt lat="46.03605" lon="6.74061">
        <ele>1485</ele>
        <time>2024-05-14T13:22:35.643Z</time>
      </trkpt>
      <trkpt lat="46.03594" lon="6.74038">
        <ele>1485</ele>
        <time>2024-05-14T13:22:47.373Z</time>
      </trkpt>
      <trkpt lat="46.03572" lon="6.74013">
        <ele>1484</ele>
        <time>2024-05-14T13:23:02.597Z</time>
      </trkpt>
      <trkpt lat="46.03556" lon="6.73998">
        <ele>1484</ele>
        <time>2024-05-14T13:23:14.146Z</time>
      </trkpt>
      <trkpt lat="46.03541" lon="6.73977">
        <ele>1490</ele>
        <time>2024-05-14T13:23:50.342Z</time>
      </trkpt>
      <trkpt lat="46.03527" lon="6.73958">
        <ele>1490</ele>
        <time>2024-05-14T13:24:01.978Z</time>
      </trkpt>
      <trkpt lat="46.03509" lon="6.73941">
        <ele>1490</ele>
        <time>2024-05-14T13:24:14.999Z</time>
      </trkpt>
      <trkpt lat="46.0349" lon="6.73921">
        <ele>1490</ele>
        <time>2024-05-14T13:24:29.236Z</time>
      </trkpt>
      <trkpt lat="46.03471" lon="6.7389">
        <ele>1495</ele>
        <time>2024-05-14T13:25:00.835Z</time>
      </trkpt>
      <trkpt lat="46.0345" lon="6.73865">
        <ele>1495</ele>
        <time>2024-05-14T13:25:17.317Z</time>
      </trkpt>
      <trkpt lat="46.03429" lon="6.73841">
        <ele>1495</ele>
        <time>2024-05-14T13:25:33.534Z</time>
      </trkpt>
      <trkpt lat="46.03407" lon="6.73817">
        <ele>1496</ele>
        <time>2024-05-14T13:25:52.248Z</time>
      </trkpt>
      <trkpt lat="46.03388" lon="6.73797">
        <ele>1497</ele>
        <time>2024-05-14T13:26:08.531Z</time>
      </trkpt>
      <trkpt lat="46.03375" lon="6.73774">
        <ele>1499</ele>
        <time>2024-05-14T13:26:25.649Z</time>
      </trkpt>
      <trkpt lat="46.03362" lon="6.73741">
        <ele>1501</ele>
        <time>2024-05-14T13:26:46.013Z</time>
      </trkpt>
      <trkpt lat="46.03353" lon="6.73716">
        <ele>1501</ele>
        <time>2024-05-14T13:26:57.840Z</time>
      </trkpt>
      <trkpt lat="46.03331" lon="6.73721">
        <ele>1501</ele>
        <time>2024-05-14T13:27:11.314Z</time>
      </trkpt>
      <trkpt lat="46.03314" lon="6.7374">
        <ele>1501</ele>
        <time>2024-05-14T13:27:24.332Z</time>
      </trkpt>
      <trkpt lat="46.03305" lon="6.73765">
        <ele>1505</ele>
        <time>2024-05-14T13:27:48.542Z</time>
      </trkpt>
      <trkpt lat="46.03308" lon="6.73794">
        <ele>1508</ele>
        <time>2024-05-14T13:28:08.805Z</time>
      </trkpt>
      <trkpt lat="46.0332" lon="6.73833">
        <ele>1517</ele>
        <time>2024-05-14T13:29:03.831Z</time>
      </trkpt>
      <trkpt lat="46.03328" lon="6.73858">
        <ele>1520</ele>
        <time>2024-05-14T13:29:23.546Z</time>
      </trkpt>
      <trkpt lat="46.03337" lon="6.73885">
        <ele>1526</ele>
        <time>2024-05-14T13:29:59.784Z</time>
      </trkpt>
      <trkpt lat="46.03352" lon="6.73924">
        <ele>1530</ele>
        <time>2024-05-14T13:30:28.618Z</time>
      </trkpt>
      <trkpt lat="46.03365" lon="6.73953">
        <ele>1536</ele>
        <time>2024-05-14T13:31:04.283Z</time>
      </trkpt>
      <trkpt lat="46.03373" lon="6.7399">
        <ele>1544</ele>
        <time>2024-05-14T13:31:52.924Z</time>
      </trkpt>
      <trkpt lat="46.03376" lon="6.74019">
        <ele>1548</ele>
        <time>2024-05-14T13:32:17.345Z</time>
      </trkpt>
      <trkpt lat="46.03379" lon="6.74053">
        <ele>1561</ele>
        <time>2024-05-14T13:33:32.917Z</time>
      </trkpt>
      <trkpt lat="46.03384" lon="6.74084">
        <ele>1564</ele>
        <time>2024-05-14T13:33:53.995Z</time>
      </trkpt>
      <trkpt lat="46.0339" lon="6.74121">
        <ele>1568</ele>
        <time>2024-05-14T13:34:20.671Z</time>
      </trkpt>
      <trkpt lat="46.03389" lon="6.74157">
        <ele>1577</ele>
        <time>2024-05-14T13:35:19.235Z</time>
      </trkpt>
      <trkpt lat="46.03385" lon="6.74189">
        <ele>1583</ele>
        <time>2024-05-14T13:35:55.029Z</time>
      </trkpt>
      <trkpt lat="46.03387" lon="6.7423">
        <ele>1589</ele>
        <time>2024-05-14T13:36:31.165Z</time>
      </trkpt>
      <trkpt lat="46.03388" lon="6.7428">
        <ele>1595</ele>
        <time>2024-05-14T13:37:09.187Z</time>
      </trkpt>
      <trkpt lat="46.03395" lon="6.74323">
        <ele>1596</ele>
        <time>2024-05-14T13:37:29.738Z</time>
      </trkpt>
      <trkpt lat="46.03407" lon="6.74351">
        <ele>1592</ele>
        <time>2024-05-14T13:37:41.830Z</time>
      </trkpt>
      <trkpt lat="46.03426" lon="6.74374">
        <ele>1589</ele>
        <time>2024-05-14T13:37:54.968Z</time>
      </trkpt>
      <trkpt lat="46.03439" lon="6.74396">
        <ele>1589</ele>
        <time>2024-05-14T13:38:07.102Z</time>
      </trkpt>
      <trkpt lat="46.03431" lon="6.74422">
        <ele>1593</ele>
        <time>2024-05-14T13:38:31.360Z</time>
      </trkpt>
      <trkpt lat="46.03412" lon="6.74426">
        <ele>1602</ele>
        <time>2024-05-14T13:39:32.347Z</time>
      </trkpt>
      <trkpt lat="46.03383" lon="6.74426">
        <ele>1621</ele>
        <time>2024-05-14T13:41:04.454Z</time>
      </trkpt>
      <trkpt lat="46.03366" lon="6.74408">
        <ele>1624</ele>
        <time>2024-05-14T13:41:25.059Z</time>
      </trkpt>
      <trkpt lat="46.03358" lon="6.74371">
        <ele>1625</ele>
        <time>2024-05-14T13:41:43.357Z</time>
      </trkpt>
      <trkpt lat="46.03346" lon="6.74336">
        <ele>1624</ele>
        <time>2024-05-14T13:41:58.029Z</time>
      </trkpt>
      <trkpt lat="46.03333" lon="6.74307">
        <ele>1624</ele>
        <time>2024-05-14T13:42:12.527Z</time>
      </trkpt>
      <trkpt lat="46.03307" lon="6.74284">
        <ele>1622</ele>
        <time>2024-05-14T13:42:28.679Z</time>
      </trkpt>
      <trkpt lat="46.03287" lon="6.74264">
        <ele>1621</ele>
        <time>2024-05-14T13:42:41.700Z</time>
      </trkpt>
      <trkpt lat="46.03277" lon="6.74235">
        <ele>1621</ele>
        <time>2024-05-14T13:42:55.300Z</time>
      </trkpt>
      <trkpt lat="46.03256" lon="6.74207">
        <ele>1622</ele>
        <time>2024-05-14T13:43:14.624Z</time>
      </trkpt>
      <trkpt lat="46.03242" lon="6.74187">
        <ele>1622</ele>
        <time>2024-05-14T13:43:26.552Z</time>
      </trkpt>
      <trkpt lat="46.03212" lon="6.74146">
        <ele>1626</ele>
        <time>2024-05-14T13:44:00.885Z</time>
      </trkpt>
      <trkpt lat="46.03184" lon="6.74124">
        <ele>1630</ele>
        <time>2024-05-14T13:44:30.191Z</time>
      </trkpt>
      <trkpt lat="46.03158" lon="6.74111">
        <ele>1633</ele>
        <time>2024-05-14T13:44:54.044Z</time>
      </trkpt>
      <trkpt lat="46.03136" lon="6.7409">
        <ele>1634</ele>
        <time>2024-05-14T13:45:12.036Z</time>
      </trkpt>
      <trkpt lat="46.03126" lon="6.74046">
        <ele>1634</ele>
        <time>2024-05-14T13:45:31.481Z</time>
      </trkpt>
      <trkpt lat="46.03115" lon="6.74003">
        <ele>1633</ele>
        <time>2024-05-14T13:45:48.986Z</time>
      </trkpt>
      <trkpt lat="46.031" lon="6.73969">
        <ele>1633</ele>
        <time>2024-05-14T13:46:05.906Z</time>
      </trkpt>
      <trkpt lat="46.03087" lon="6.73945">
        <ele>1638</ele>
        <time>2024-05-14T13:46:35.643Z</time>
      </trkpt>
      <trkpt lat="46.03067" lon="6.73917">
        <ele>1644</ele>
        <time>2024-05-14T13:47:11.649Z</time>
      </trkpt>
      <trkpt lat="46.03058" lon="6.73894">
        <ele>1643</ele>
        <time>2024-05-14T13:47:21.352Z</time>
      </trkpt>
      <trkpt lat="46.03049" lon="6.73858">
        <ele>1643</ele>
        <time>2024-05-14T13:47:37.423Z</time>
      </trkpt>
      <trkpt lat="46.03039" lon="6.73834">
        <ele>1641</ele>
        <time>2024-05-14T13:47:47.710Z</time>
      </trkpt>
      <trkpt lat="46.03024" lon="6.73789">
        <ele>1639</ele>
        <time>2024-05-14T13:48:06.056Z</time>
      </trkpt>
      <trkpt lat="46.03013" lon="6.73761">
        <ele>1638</ele>
        <time>2024-05-14T13:48:17.879Z</time>
      </trkpt>
      <trkpt lat="46.02992" lon="6.73735">
        <ele>1638</ele>
        <time>2024-05-14T13:48:34.632Z</time>
      </trkpt>
      <trkpt lat="46.02976" lon="6.73713">
        <ele>1640</ele>
        <time>2024-05-14T13:48:52.600Z</time>
      </trkpt>
      <trkpt lat="46.02958" lon="6.73696">
        <ele>1641</ele>
        <time>2024-05-14T13:49:07.687Z</time>
      </trkpt>
      <trkpt lat="46.02937" lon="6.73677">
        <ele>1639</ele>
        <time>2024-05-14T13:49:20.815Z</time>
      </trkpt>
      <trkpt lat="46.02921" lon="6.7365">
        <ele>1642</ele>
        <time>2024-05-14T13:49:43.162Z</time>
      </trkpt>
      <trkpt lat="46.02896" lon="6.73631">
        <ele>1646</ele>
        <time>2024-05-14T13:50:10.699Z</time>
      </trkpt>
      <trkpt lat="46.02873" lon="6.73615">
        <ele>1647</ele>
        <time>2024-05-14T13:50:28.183Z</time>
      </trkpt>
      <trkpt lat="46.02857" lon="6.73592">
        <ele>1648</ele>
        <time>2024-05-14T13:50:43.914Z</time>
      </trkpt>
      <trkpt lat="46.02836" lon="6.73575">
        <ele>1648</ele>
        <time>2024-05-14T13:50:58.487Z</time>
      </trkpt>
      <trkpt lat="46.02814" lon="6.73576">
        <ele>1651</ele>
        <time>2024-05-14T13:51:19.525Z</time>
      </trkpt>
      <trkpt lat="46.0279" lon="6.73577">
        <ele>1654</ele>
        <time>2024-05-14T13:51:41.549Z</time>
      </trkpt>
      <trkpt lat="46.02756" lon="6.73579">
        <ele>1654</ele>
        <time>2024-05-14T13:52:02.136Z</time>
      </trkpt>
      <trkpt lat="46.02736" lon="6.73581">
        <ele>1652</ele>
        <time>2024-05-14T13:52:12.748Z</time>
      </trkpt>
      <trkpt lat="46.02719" lon="6.73566">
        <ele>1651</ele>
        <time>2024-05-14T13:52:23.302Z</time>
      </trkpt>
      <trkpt lat="46.02717" lon="6.7353">
        <ele>1648</ele>
        <time>2024-05-14T13:52:36.575Z</time>
      </trkpt>
      <trkpt lat="46.02721" lon="6.73501">
        <ele>1646</ele>
        <time>2024-05-14T13:52:47.442Z</time>
      </trkpt>
      <trkpt lat="46.02713" lon="6.73466">
        <ele>1644</ele>
        <time>2024-05-14T13:53:00.985Z</time>
      </trkpt>
      <trkpt lat="46.02699" lon="6.73437">
        <ele>1640</ele>
        <time>2024-05-14T13:53:13.967Z</time>
      </trkpt>
      <trkpt lat="46.02683" lon="6.73422">
        <ele>1638</ele>
        <time>2024-05-14T13:53:24.073Z</time>
      </trkpt>
      <trkpt lat="46.02683" lon="6.73392">
        <ele>1634</ele>
        <time>2024-05-14T13:53:35.099Z</time>
      </trkpt>
      <trkpt lat="46.02685" lon="6.73365">
        <ele>1630</ele>
        <time>2024-05-14T13:53:45.079Z</time>
      </trkpt>
      <trkpt lat="46.02684" lon="6.73336">
        <ele>1625</ele>
        <time>2024-05-14T13:53:55.751Z</time>
      </trkpt>
      <trkpt lat="46.02696" lon="6.73299">
        <ele>1613</ele>
        <time>2024-05-14T13:54:10.760Z</time>
      </trkpt>
      <trkpt lat="46.02712" lon="6.73269">
        <ele>1599</ele>
        <time>2024-05-14T13:54:24.664Z</time>
      </trkpt>
      <trkpt lat="46.02731" lon="6.73251">
        <ele>1594</ele>
        <time>2024-05-14T13:54:36.702Z</time>
      </trkpt>
      <trkpt lat="46.02749" lon="6.73237">
        <ele>1582</ele>
        <time>2024-05-14T13:54:47.531Z</time>
      </trkpt>
      <trkpt lat="46.02766" lon="6.73223">
        <ele>1576</ele>
        <time>2024-05-14T13:54:57.897Z</time>
      </trkpt>
      <trkpt lat="46.02783" lon="6.73205">
        <ele>1564</ele>
        <time>2024-05-14T13:55:09.066Z</time>
      </trkpt>
      <trkpt lat="46.02794" lon="6.73172">
        <ele>1553</ele>
        <time>2024-05-14T13:55:22.520Z</time>
      </trkpt>
      <trkpt lat="46.02802" lon="6.73142">
        <ele>1544</ele>
        <time>2024-05-14T13:55:34.331Z</time>
      </trkpt>
      <trkpt lat="46.02811" lon="6.73116">
        <ele>1540</ele>
        <time>2024-05-14T13:55:45.009Z</time>
      </trkpt>
      <trkpt lat="46.02821" lon="6.7309">
        <ele>1537</ele>
        <time>2024-05-14T13:55:55.933Z</time>
      </trkpt>
      <trkpt lat="46.02832" lon="6.73065">
        <ele>1535</ele>
        <time>2024-05-14T13:56:06.811Z</time>
      </trkpt>
      <trkpt lat="46.02856" lon="6.73071">
        <ele>1535</ele>
        <time>2024-05-14T13:56:21.547Z</time>
      </trkpt>
      <trkpt lat="46.02879" lon="6.73096">
        <ele>1534</ele>
        <time>2024-05-14T13:56:37.249Z</time>
      </trkpt>
      <trkpt lat="46.02901" lon="6.73113">
        <ele>1532</ele>
        <time>2024-05-14T13:56:50.465Z</time>
      </trkpt>
      <trkpt lat="46.02926" lon="6.7312">
        <ele>1531</ele>
        <time>2024-05-14T13:57:04.157Z</time>
      </trkpt>
      <trkpt lat="46.02949" lon="6.73125">
        <ele>1529</ele>
        <time>2024-05-14T13:57:16.470Z</time>
      </trkpt>
      <trkpt lat="46.02969" lon="6.73136">
        <ele>1528</ele>
        <time>2024-05-14T13:57:27.803Z</time>
      </trkpt>
      <trkpt lat="46.0299" lon="6.73158">
        <ele>1528</ele>
        <time>2024-05-14T13:57:43.513Z</time>
      </trkpt>
      <trkpt lat="46.0301" lon="6.73177">
        <ele>1527</ele>
        <time>2024-05-14T13:57:56.301Z</time>
      </trkpt>
      <trkpt lat="46.03025" lon="6.73198">
        <ele>1527</ele>
        <time>2024-05-14T13:58:08.956Z</time>
      </trkpt>
      <trkpt lat="46.03043" lon="6.73229">
        <ele>1526</ele>
        <time>2024-05-14T13:58:24.202Z</time>
      </trkpt>
      <trkpt lat="46.03072" lon="6.73256">
        <ele>1524</ele>
        <time>2024-05-14T13:58:42.481Z</time>
      </trkpt>
      <trkpt lat="46.03101" lon="6.73275">
        <ele>1522</ele>
        <time>2024-05-14T13:58:59.346Z</time>
      </trkpt>
      <trkpt lat="46.03123" lon="6.73283">
        <ele>1520</ele>
        <time>2024-05-14T13:59:11.357Z</time>
      </trkpt>
      <trkpt lat="46.03141" lon="6.73291">
        <ele>1519</ele>
        <time>2024-05-14T13:59:21.329Z</time>
      </trkpt>
      <trkpt lat="46.03165" lon="6.73306">
        <ele>1518</ele>
        <time>2024-05-14T13:59:35.438Z</time>
      </trkpt>
      <trkpt lat="46.03193" lon="6.73336">
        <ele>1517</ele>
        <time>2024-05-14T13:59:54.797Z</time>
      </trkpt>
      <trkpt lat="46.03212" lon="6.73356">
        <ele>1517</ele>
        <time>2024-05-14T14:00:09.034Z</time>
      </trkpt>
      <trkpt lat="46.03231" lon="6.73381">
        <ele>1517</ele>
        <time>2024-05-14T14:00:24.602Z</time>
      </trkpt>
      <trkpt lat="46.03251" lon="6.73409">
        <ele>1517</ele>
        <time>2024-05-14T14:00:41.475Z</time>
      </trkpt>
      <trkpt lat="46.03267" lon="6.73426">
        <ele>1517</ele>
        <time>2024-05-14T14:00:53.503Z</time>
      </trkpt>
      <trkpt lat="46.03286" lon="6.73446">
        <ele>1517</ele>
        <time>2024-05-14T14:01:07.740Z</time>
      </trkpt>
      <trkpt lat="46.0331" lon="6.73472">
        <ele>1517</ele>
        <time>2024-05-14T14:01:25.907Z</time>
      </trkpt>
      <trkpt lat="46.03338" lon="6.73485">
        <ele>1517</ele>
        <time>2024-05-14T14:01:43.705Z</time>
      </trkpt>
      <trkpt lat="46.03366" lon="6.73498">
        <ele>1517</ele>
        <time>2024-05-14T14:02:01.502Z</time>
      </trkpt>
      <trkpt lat="46.03387" lon="6.73509">
        <ele>1517</ele>
        <time>2024-05-14T14:02:15.020Z</time>
      </trkpt>
      <trkpt lat="46.03407" lon="6.73528">
        <ele>1516</ele>
        <time>2024-05-14T14:02:27.808Z</time>
      </trkpt>
      <trkpt lat="46.03427" lon="6.73547">
        <ele>1514</ele>
        <time>2024-05-14T14:02:40.490Z</time>
      </trkpt>
      <trkpt lat="46.03444" lon="6.73569">
        <ele>1514</ele>
        <time>2024-05-14T14:02:54.316Z</time>
      </trkpt>
      <trkpt lat="46.03457" lon="6.73592">
        <ele>1513</ele>
        <time>2024-05-14T14:03:05.215Z</time>
      </trkpt>
      <trkpt lat="46.03478" lon="6.73624">
        <ele>1513</ele>
        <time>2024-05-14T14:03:23.709Z</time>
      </trkpt>
      <trkpt lat="46.03494" lon="6.73646">
        <ele>1514</ele>
        <time>2024-05-14T14:03:39.150Z</time>
      </trkpt>
      <trkpt lat="46.03513" lon="6.73683">
        <ele>1514</ele>
        <time>2024-05-14T14:03:58.479Z</time>
      </trkpt>
      <trkpt lat="46.03534" lon="6.73719">
        <ele>1516</ele>
        <time>2024-05-14T14:04:22.503Z</time>
      </trkpt>
      <trkpt lat="46.03548" lon="6.7374">
        <ele>1516</ele>
        <time>2024-05-14T14:04:34.731Z</time>
      </trkpt>
      <trkpt lat="46.0357" lon="6.73774">
        <ele>1517</ele>
        <time>2024-05-14T14:04:56.246Z</time>
      </trkpt>
      <trkpt lat="46.0359" lon="6.73798">
        <ele>1519</ele>
        <time>2024-05-14T14:05:16.430Z</time>
      </trkpt>
      <trkpt lat="46.03613" lon="6.7381">
        <ele>1520</ele>
        <time>2024-05-14T14:05:33.269Z</time>
      </trkpt>
      <trkpt lat="46.03632" lon="6.73814">
        <ele>1521</ele>
        <time>2024-05-14T14:05:46.978Z</time>
      </trkpt>
      <trkpt lat="46.03651" lon="6.73828">
        <ele>1521</ele>
        <time>2024-05-14T14:05:59.889Z</time>
      </trkpt>
      <trkpt lat="46.03673" lon="6.73851">
        <ele>1518</ele>
        <time>2024-05-14T14:06:14.278Z</time>
      </trkpt>
      <trkpt lat="46.03694" lon="6.73879">
        <ele>1518</ele>
        <time>2024-05-14T14:06:31.590Z</time>
      </trkpt>
      <trkpt lat="46.03717" lon="6.73895">
        <ele>1517</ele>
        <time>2024-05-14T14:06:45.326Z</time>
      </trkpt>
      <trkpt lat="46.03733" lon="6.73917">
        <ele>1516</ele>
        <time>2024-05-14T14:06:57.035Z</time>
      </trkpt>
      <trkpt lat="46.03757" lon="6.73935">
        <ele>1515</ele>
        <time>2024-05-14T14:07:11.682Z</time>
      </trkpt>
      <trkpt lat="46.03783" lon="6.73954">
        <ele>1512</ele>
        <time>2024-05-14T14:07:27.114Z</time>
      </trkpt>
      <trkpt lat="46.03803" lon="6.73967">
        <ele>1510</ele>
        <time>2024-05-14T14:07:38.729Z</time>
      </trkpt>
      <trkpt lat="46.0383" lon="6.73974">
        <ele>1508</ele>
        <time>2024-05-14T14:07:53.251Z</time>
      </trkpt>
      <trkpt lat="46.03865" lon="6.73978">
        <ele>1507</ele>
        <time>2024-05-14T14:08:12.739Z</time>
      </trkpt>
      <trkpt lat="46.03884" lon="6.73971">
        <ele>1507</ele>
        <time>2024-05-14T14:08:24.603Z</time>
      </trkpt>
      <trkpt lat="46.03904" lon="6.73988">
        <ele>1506</ele>
        <time>2024-05-14T14:08:36.950Z</time>
      </trkpt>
      <trkpt lat="46.0392" lon="6.74013">
        <ele>1504</ele>
        <time>2024-05-14T14:08:49.445Z</time>
      </trkpt>
      <trkpt lat="46.0394" lon="6.74019">
        <ele>1503</ele>
        <time>2024-05-14T14:09:00.259Z</time>
      </trkpt>
      <trkpt lat="46.03961" lon="6.74039">
        <ele>1500</ele>
        <time>2024-05-14T14:09:13.586Z</time>
      </trkpt>
      <trkpt lat="46.03975" lon="6.74059">
        <ele>1497</ele>
        <time>2024-05-14T14:09:24.023Z</time>
      </trkpt>
      <trkpt lat="46.03995" lon="6.74061">
        <ele>1498</ele>
        <time>2024-05-14T14:09:38.233Z</time>
      </trkpt>
      <trkpt lat="46.0401" lon="6.7408">
        <ele>1492</ele>
        <time>2024-05-14T14:09:48.806Z</time>
      </trkpt>
      <trkpt lat="46.04026" lon="6.741">
        <ele>1495</ele>
        <time>2024-05-14T14:10:09.451Z</time>
      </trkpt>
      <trkpt lat="46.04053" lon="6.74106">
        <ele>1492</ele>
        <time>2024-05-14T14:10:23.913Z</time>
      </trkpt>
      <trkpt lat="46.04066" lon="6.74132">
        <ele>1490</ele>
        <time>2024-05-14T14:10:35.687Z</time>
      </trkpt>
      <trkpt lat="46.04079" lon="6.74164">
        <ele>1484</ele>
        <time>2024-05-14T14:10:49.311Z</time>
      </trkpt>
      <trkpt lat="46.04099" lon="6.74182">
        <ele>1489</ele>
        <time>2024-05-14T14:11:19.383Z</time>
      </trkpt>
      <trkpt lat="46.0412" lon="6.74189">
        <ele>1490</ele>
        <time>2024-05-14T14:11:34.488Z</time>
      </trkpt>
      <trkpt lat="46.04135" lon="6.74212">
        <ele>1485</ele>
        <time>2024-05-14T14:11:46.084Z</time>
      </trkpt>
      <trkpt lat="46.04124" lon="6.74253">
        <ele>1480</ele>
        <time>2024-05-14T14:12:02.235Z</time>
      </trkpt>
      <trkpt lat="46.04123" lon="6.74285">
        <ele>1480</ele>
        <time>2024-05-14T14:12:15.687Z</time>
      </trkpt>
      <trkpt lat="46.04135" lon="6.74319">
        <ele>1480</ele>
        <time>2024-05-14T14:12:31.704Z</time>
      </trkpt>
      <trkpt lat="46.0415" lon="6.7434">
        <ele>1481</ele>
        <time>2024-05-14T14:12:46.430Z</time>
      </trkpt>
      <trkpt lat="46.04162" lon="6.74363">
        <ele>1481</ele>
        <time>2024-05-14T14:12:58.513Z</time>
      </trkpt>
      <trkpt lat="46.0418" lon="6.74382">
        <ele>1481</ele>
        <time>2024-05-14T14:13:12.012Z</time>
      </trkpt>
      <trkpt lat="46.04195" lon="6.74397">
        <ele>1482</ele>
        <time>2024-05-14T14:13:25.165Z</time>
      </trkpt>
      <trkpt lat="46.04202" lon="6.74422">
        <ele>1483</ele>
        <time>2024-05-14T14:13:38.584Z</time>
      </trkpt>
      <trkpt lat="46.04218" lon="6.74447">
        <ele>1483</ele>
        <time>2024-05-14T14:13:52.864Z</time>
      </trkpt>
      <trkpt lat="46.04226" lon="6.74472">
        <ele>1483</ele>
        <time>2024-05-14T14:14:04.424Z</time>
      </trkpt>
      <trkpt lat="46.04237" lon="6.74498">
        <ele>1485</ele>
        <time>2024-05-14T14:14:21.843Z</time>
      </trkpt>
      <trkpt lat="46.04252" lon="6.74525">
        <ele>1484</ele>
        <time>2024-05-14T14:14:34.659Z</time>
      </trkpt>
      <trkpt lat="46.04262" lon="6.74558">
        <ele>1483</ele>
        <time>2024-05-14T14:14:48.068Z</time>
      </trkpt>
      <trkpt lat="46.04275" lon="6.74582">
        <ele>1479</ele>
        <time>2024-05-14T14:14:59.254Z</time>
      </trkpt>
      <trkpt lat="46.04279" lon="6.74613">
        <ele>1478</ele>
        <time>2024-05-14T14:15:10.839Z</time>
      </trkpt>
      <trkpt lat="46.04291" lon="6.74644">
        <ele>1478</ele>
        <time>2024-05-14T14:15:25.744Z</time>
      </trkpt>
      <trkpt lat="46.04307" lon="6.74682">
        <ele>1474</ele>
        <time>2024-05-14T14:15:42.075Z</time>
      </trkpt>
      <trkpt lat="46.04317" lon="6.74719">
        <ele>1470</ele>
        <time>2024-05-14T14:15:56.664Z</time>
      </trkpt>
      <trkpt lat="46.04328" lon="6.74746">
        <ele>1470</ele>
        <time>2024-05-14T14:16:09.810Z</time>
      </trkpt>
      <trkpt lat="46.04335" lon="6.74771">
        <ele>1467</ele>
        <time>2024-05-14T14:16:19.715Z</time>
      </trkpt>
      <trkpt lat="46.04337" lon="6.748">
        <ele>1461</ele>
        <time>2024-05-14T14:16:30.423Z</time>
      </trkpt>
      <trkpt lat="46.04345" lon="6.74825">
        <ele>1461</ele>
        <time>2024-05-14T14:16:41.983Z</time>
      </trkpt>
      <trkpt lat="46.04355" lon="6.74849">
        <ele>1463</ele>
        <time>2024-05-14T14:16:58.467Z</time>
      </trkpt>
      <trkpt lat="46.04381" lon="6.74862">
        <ele>1466</ele>
        <time>2024-05-14T14:17:22.319Z</time>
      </trkpt>
      <trkpt lat="46.044" lon="6.74866">
        <ele>1468</ele>
        <time>2024-05-14T14:17:38.679Z</time>
      </trkpt>
      <trkpt lat="46.0442" lon="6.74867">
        <ele>1468</ele>
        <time>2024-05-14T14:17:50.786Z</time>
      </trkpt>
      <trkpt lat="46.0444" lon="6.74855">
        <ele>1469</ele>
        <time>2024-05-14T14:18:05.957Z</time>
      </trkpt>
      <trkpt lat="46.04455" lon="6.74839">
        <ele>1470</ele>
        <time>2024-05-14T14:18:19.348Z</time>
      </trkpt>
      <trkpt lat="46.04479" lon="6.74807">
        <ele>1470</ele>
        <time>2024-05-14T14:18:39.131Z</time>
      </trkpt>
      <trkpt lat="46.04494" lon="6.7479">
        <ele>1470</ele>
        <time>2024-05-14T14:18:50.677Z</time>
      </trkpt>
      <trkpt lat="46.04521" lon="6.74748">
        <ele>1469</ele>
        <time>2024-05-14T14:19:12.950Z</time>
      </trkpt>
      <trkpt lat="46.04541" lon="6.74708">
        <ele>1464</ele>
        <time>2024-05-14T14:19:31.063Z</time>
      </trkpt>
      <trkpt lat="46.04553" lon="6.74687">
        <ele>1462</ele>
        <time>2024-05-14T14:19:41.057Z</time>
      </trkpt>
      <trkpt lat="46.0457" lon="6.74651">
        <ele>1458</ele>
        <time>2024-05-14T14:19:57.055Z</time>
      </trkpt>
      <trkpt lat="46.04588" lon="6.7462">
        <ele>1458</ele>
        <time>2024-05-14T14:20:14.026Z</time>
      </trkpt>
      <trkpt lat="46.04603" lon="6.74595">
        <ele>1454</ele>
        <time>2024-05-14T14:20:26.167Z</time>
      </trkpt>
      <trkpt lat="46.04617" lon="6.74551">
        <ele>1454</ele>
        <time>2024-05-14T14:20:46.492Z</time>
      </trkpt>
      <trkpt lat="46.04634" lon="6.74506">
        <ele>1453</ele>
        <time>2024-05-14T14:21:06.250Z</time>
      </trkpt>
      <trkpt lat="46.04638" lon="6.74476">
        <ele>1453</ele>
        <time>2024-05-14T14:21:19.078Z</time>
      </trkpt>
      <trkpt lat="46.04641" lon="6.74443">
        <ele>1452</ele>
        <time>2024-05-14T14:21:31.352Z</time>
      </trkpt>
      <trkpt lat="46.04654" lon="6.74405">
        <ele>1449</ele>
        <time>2024-05-14T14:21:46.917Z</time>
      </trkpt>
      <trkpt lat="46.0466" lon="6.74378">
        <ele>1449</ele>
        <time>2024-05-14T14:21:58.821Z</time>
      </trkpt>
      <trkpt lat="46.04663" lon="6.74341">
        <ele>1449</ele>
        <time>2024-05-14T14:22:14.463Z</time>
      </trkpt>
      <trkpt lat="46.04665" lon="6.74312">
        <ele>1449</ele>
        <time>2024-05-14T14:22:26.700Z</time>
      </trkpt>
      <trkpt lat="46.0467" lon="6.74282">
        <ele>1449</ele>
        <time>2024-05-14T14:22:39.655Z</time>
      </trkpt>
      <trkpt lat="46.04679" lon="6.74234">
        <ele>1451</ele>
        <time>2024-05-14T14:23:04.775Z</time>
      </trkpt>
      <trkpt lat="46.04686" lon="6.74199">
        <ele>1453</ele>
        <time>2024-05-14T14:23:24.531Z</time>
      </trkpt>
      <trkpt lat="46.04688" lon="6.74165">
        <ele>1455</ele>
        <time>2024-05-14T14:23:43.378Z</time>
      </trkpt>
      <trkpt lat="46.04686" lon="6.74138">
        <ele>1455</ele>
        <time>2024-05-14T14:23:54.779Z</time>
      </trkpt>
      <trkpt lat="46.04704" lon="6.74117">
        <ele>1455</ele>
        <time>2024-05-14T14:24:08.791Z</time>
      </trkpt>
      <trkpt lat="46.04717" lon="6.7409">
        <ele>1455</ele>
        <time>2024-05-14T14:24:22.589Z</time>
      </trkpt>
      <trkpt lat="46.04734" lon="6.74061">
        <ele>1458</ele>
        <time>2024-05-14T14:24:45.819Z</time>
      </trkpt>
      <trkpt lat="46.0475" lon="6.74039">
        <ele>1456</ele>
        <time>2024-05-14T14:24:57.527Z</time>
      </trkpt>
      <trkpt lat="46.04772" lon="6.74023">
        <ele>1457</ele>
        <time>2024-05-14T14:25:14.473Z</time>
      </trkpt>
      <trkpt lat="46.04796" lon="6.74005">
        <ele>1459</ele>
        <time>2024-05-14T14:25:35.248Z</time>
      </trkpt>
      <trkpt lat="46.04814" lon="6.73987">
        <ele>1459</ele>
        <time>2024-05-14T14:25:48.504Z</time>
      </trkpt>
      <trkpt lat="46.04837" lon="6.73972">
        <ele>1460</ele>
        <time>2024-05-14T14:26:05.810Z</time>
      </trkpt>
      <trkpt lat="46.04861" lon="6.73958">
        <ele>1460</ele>
        <time>2024-05-14T14:26:21.475Z</time>
      </trkpt>
      <trkpt lat="46.04882" lon="6.73948">
        <ele>1459</ele>
        <time>2024-05-14T14:26:33.182Z</time>
      </trkpt>
      <trkpt lat="46.04904" lon="6.73954">
        <ele>1449</ele>
        <time>2024-05-14T14:26:45.035Z</time>
      </trkpt>
      <trkpt lat="46.04922" lon="6.7396">
        <ele>1445</ele>
        <time>2024-05-14T14:26:54.815Z</time>
      </trkpt>
      <trkpt lat="46.04941" lon="6.73941">
        <ele>1447</ele>
        <time>2024-05-14T14:27:13.348Z</time>
      </trkpt>
      <trkpt lat="46.04948" lon="6.73913">
        <ele>1445</ele>
        <time>2024-05-14T14:27:24.282Z</time>
      </trkpt>
      <trkpt lat="46.04955" lon="6.73886">
        <ele>1443</ele>
        <time>2024-05-14T14:27:34.871Z</time>
      </trkpt>
      <trkpt lat="46.04959" lon="6.73853">
        <ele>1441</ele>
        <time>2024-05-14T14:27:47.178Z</time>
      </trkpt>
      <trkpt lat="46.04963" lon="6.73822">
        <ele>1432</ele>
        <time>2024-05-14T14:27:58.763Z</time>
      </trkpt>
      <trkpt lat="46.04956" lon="6.73793">
        <ele>1430</ele>
        <time>2024-05-14T14:28:10.043Z</time>
      </trkpt>
      <trkpt lat="46.0495" lon="6.73761">
        <ele>1424</ele>
        <time>2024-05-14T14:28:22.221Z</time>
      </trkpt>
      <trkpt lat="46.04948" lon="6.73725">
        <ele>1423</ele>
        <time>2024-05-14T14:28:35.672Z</time>
      </trkpt>
      <trkpt lat="46.04947" lon="6.73694">
        <ele>1420</ele>
        <time>2024-05-14T14:28:47.074Z</time>
      </trkpt>
      <trkpt lat="46.04945" lon="6.73666">
        <ele>1417</ele>
        <time>2024-05-14T14:28:57.415Z</time>
      </trkpt>
      <trkpt lat="46.04946" lon="6.73625">
        <ele>1413</ele>
        <time>2024-05-14T14:29:12.487Z</time>
      </trkpt>
      <trkpt lat="46.0494" lon="6.73588">
        <ele>1410</ele>
        <time>2024-05-14T14:29:26.447Z</time>
      </trkpt>
      <trkpt lat="46.04933" lon="6.73552">
        <ele>1410</ele>
        <time>2024-05-14T14:29:42.144Z</time>
      </trkpt>
      <trkpt lat="46.0493" lon="6.73509">
        <ele>1406</ele>
        <time>2024-05-14T14:29:58.021Z</time>
      </trkpt>
      <trkpt lat="46.04922" lon="6.7347">
        <ele>1399</ele>
        <time>2024-05-14T14:30:12.962Z</time>
      </trkpt>
      <trkpt lat="46.04914" lon="6.73437">
        <ele>1399</ele>
        <time>2024-05-14T14:30:27.639Z</time>
      </trkpt>
      <trkpt lat="46.04905" lon="6.7341">
        <ele>1396</ele>
        <time>2024-05-14T14:30:38.644Z</time>
      </trkpt>
      <trkpt lat="46.04904" lon="6.7338">
        <ele>1386</ele>
        <time>2024-05-14T14:30:49.678Z</time>
      </trkpt>
      <trkpt lat="46.04891" lon="6.73361">
        <ele>1386</ele>
        <time>2024-05-14T14:31:00.881Z</time>
      </trkpt>
      <trkpt lat="46.0487" lon="6.73349">
        <ele>1386</ele>
        <time>2024-05-14T14:31:14.548Z</time>
      </trkpt>
      <trkpt lat="46.0485" lon="6.73329">
        <ele>1388</ele>
        <time>2024-05-14T14:31:33.770Z</time>
      </trkpt>
      <trkpt lat="46.04835" lon="6.73309">
        <ele>1386</ele>
        <time>2024-05-14T14:31:44.589Z</time>
      </trkpt>
      <trkpt lat="46.04859" lon="6.73287">
        <ele>1384</ele>
        <time>2024-05-14T14:31:59.646Z</time>
      </trkpt>
      <trkpt lat="46.04882" lon="6.73275">
        <ele>1380</ele>
        <time>2024-05-14T14:32:12.595Z</time>
      </trkpt>
      <trkpt lat="46.049" lon="6.7325">
        <ele>1379</ele>
        <time>2024-05-14T14:32:26.008Z</time>
      </trkpt>
      <trkpt lat="46.0492" lon="6.73238">
        <ele>1378</ele>
        <time>2024-05-14T14:32:37.476Z</time>
      </trkpt>
      <trkpt lat="46.0494" lon="6.73232">
        <ele>1371</ele>
        <time>2024-05-14T14:32:48.290Z</time>
      </trkpt>
      <trkpt lat="46.04959" lon="6.73226">
        <ele>1370</ele>
        <time>2024-05-14T14:32:58.587Z</time>
      </trkpt>
      <trkpt lat="46.04979" lon="6.7321">
        <ele>1369</ele>
        <time>2024-05-14T14:33:10.727Z</time>
      </trkpt>
      <trkpt lat="46.05001" lon="6.73195">
        <ele>1369</ele>
        <time>2024-05-14T14:33:25.451Z</time>
      </trkpt>
      <trkpt lat="46.05019" lon="6.73188">
        <ele>1368</ele>
        <time>2024-05-14T14:33:35.320Z</time>
      </trkpt>
      <trkpt lat="46.05037" lon="6.73174">
        <ele>1368</ele>
        <time>2024-05-14T14:33:47.695Z</time>
      </trkpt>
      <trkpt lat="46.0506" lon="6.73164">
        <ele>1366</ele>
        <time>2024-05-14T14:34:00.412Z</time>
      </trkpt>
      <trkpt lat="46.05079" lon="6.73162">
        <ele>1364</ele>
        <time>2024-05-14T14:34:10.497Z</time>
      </trkpt>
      <trkpt lat="46.05099" lon="6.73164">
        <ele>1364</ele>
        <time>2024-05-14T14:34:22.625Z</time>
      </trkpt>
      <trkpt lat="46.05125" lon="6.73165">
        <ele>1364</ele>
        <time>2024-05-14T14:34:38.360Z</time>
      </trkpt>
      <trkpt lat="46.05148" lon="6.73166">
        <ele>1362</ele>
        <time>2024-05-14T14:34:50.541Z</time>
      </trkpt>
      <trkpt lat="46.05168" lon="6.73171">
        <ele>1362</ele>
        <time>2024-05-14T14:35:02.821Z</time>
      </trkpt>
      <trkpt lat="46.05187" lon="6.7315">
        <ele>1362</ele>
        <time>2024-05-14T14:35:17.308Z</time>
      </trkpt>
      <trkpt lat="46.05203" lon="6.73132">
        <ele>1362</ele>
        <time>2024-05-14T14:35:29.588Z</time>
      </trkpt>
      <trkpt lat="46.05218" lon="6.73102">
        <ele>1364</ele>
        <time>2024-05-14T14:35:49.561Z</time>
      </trkpt>
      <trkpt lat="46.05232" lon="6.73083">
        <ele>1362</ele>
        <time>2024-05-14T14:35:59.742Z</time>
      </trkpt>
      <trkpt lat="46.05255" lon="6.73084">
        <ele>1362</ele>
        <time>2024-05-14T14:36:13.662Z</time>
      </trkpt>
      <trkpt lat="46.05277" lon="6.73076">
        <ele>1362</ele>
        <time>2024-05-14T14:36:27.389Z</time>
      </trkpt>
      <trkpt lat="46.05296" lon="6.73078">
        <ele>1359</ele>
        <time>2024-05-14T14:36:37.474Z</time>
      </trkpt>
      <trkpt lat="46.05322" lon="6.73089">
        <ele>1351</ele>
        <time>2024-05-14T14:36:51.818Z</time>
      </trkpt>
      <trkpt lat="46.05343" lon="6.73089">
        <ele>1351</ele>
        <time>2024-05-14T14:37:04.522Z</time>
      </trkpt>
      <trkpt lat="46.05368" lon="6.73085">
        <ele>1349</ele>
        <time>2024-05-14T14:37:17.837Z</time>
      </trkpt>
      <trkpt lat="46.05396" lon="6.73081">
        <ele>1343</ele>
        <time>2024-05-14T14:37:32.732Z</time>
      </trkpt>
      <trkpt lat="46.05416" lon="6.73075">
        <ele>1341</ele>
        <time>2024-05-14T14:37:43.546Z</time>
      </trkpt>
      <trkpt lat="46.05436" lon="6.73061">
        <ele>1338</ele>
        <time>2024-05-14T14:37:55.316Z</time>
      </trkpt>
      <trkpt lat="46.05447" lon="6.73036">
        <ele>1337</ele>
        <time>2024-05-14T14:38:06.190Z</time>
      </trkpt>
      <trkpt lat="46.05449" lon="6.73">
        <ele>1335</ele>
        <time>2024-05-14T14:38:19.457Z</time>
      </trkpt>
      <trkpt lat="46.05493" lon="6.7299">
        <ele>1312</ele>
        <time>2024-05-14T14:38:43.037Z</time>
      </trkpt>
      <trkpt lat="46.05516" lon="6.72982">
        <ele>1302</ele>
        <time>2024-05-14T14:38:55.561Z</time>
      </trkpt>
      <trkpt lat="46.05555" lon="6.72982">
        <ele>1290</ele>
        <time>2024-05-14T14:39:16.206Z</time>
      </trkpt>
      <trkpt lat="46.05588" lon="6.72969">
        <ele>1277</ele>
        <time>2024-05-14T14:39:34.316Z</time>
      </trkpt>
      <trkpt lat="46.05631" lon="6.72948">
        <ele>1259</ele>
        <time>2024-05-14T14:39:58.349Z</time>
      </trkpt>
      <trkpt lat="46.05661" lon="6.72946">
        <ele>1252</ele>
        <time>2024-05-14T14:40:14.247Z</time>
      </trkpt>
      <trkpt lat="46.05692" lon="6.72962">
        <ele>1247</ele>
        <time>2024-05-14T14:40:31.678Z</time>
      </trkpt>
      <trkpt lat="46.05716" lon="6.72991">
        <ele>1243</ele>
        <time>2024-05-14T14:40:48.257Z</time>
      </trkpt>
      <trkpt lat="46.05731" lon="6.73017">
        <ele>1237</ele>
        <time>2024-05-14T14:41:00.678Z</time>
      </trkpt>
      <trkpt lat="46.05752" lon="6.73047">
        <ele>1234</ele>
        <time>2024-05-14T14:41:16.331Z</time>
      </trkpt>
      <trkpt lat="46.05765" lon="6.73066">
        <ele>1232</ele>
        <time>2024-05-14T14:41:26.132Z</time>
      </trkpt>
      <trkpt lat="46.05785" lon="6.73086">
        <ele>1224</ele>
        <time>2024-05-14T14:41:39.018Z</time>
      </trkpt>
      <trkpt lat="46.05824" lon="6.73106">
        <ele>1213</ele>
        <time>2024-05-14T14:42:00.931Z</time>
      </trkpt>
      <trkpt lat="46.05866" lon="6.73115">
        <ele>1207</ele>
        <time>2024-05-14T14:42:23.409Z</time>
      </trkpt>
      <trkpt lat="46.05897" lon="6.7312">
        <ele>1198</ele>
        <time>2024-05-14T14:42:39.921Z</time>
      </trkpt>
      <trkpt lat="46.05915" lon="6.73102">
        <ele>1188</ele>
        <time>2024-05-14T14:42:51.519Z</time>
      </trkpt>
      <trkpt lat="46.05896" lon="6.73079">
        <ele>1180</ele>
        <time>2024-05-14T14:43:04.654Z</time>
      </trkpt>
      <trkpt lat="46.05951" lon="6.73087">
        <ele>1163</ele>
        <time>2024-05-14T14:43:33.916Z</time>
      </trkpt>
      <trkpt lat="46.05945" lon="6.73051">
        <ele>1157</ele>
        <time>2024-05-14T14:43:47.516Z</time>
      </trkpt>
      <trkpt lat="46.05924" lon="6.73028">
        <ele>1147</ele>
        <time>2024-05-14T14:44:01.478Z</time>
      </trkpt>
      <trkpt lat="46.05902" lon="6.73008">
        <ele>1141</ele>
        <time>2024-05-14T14:44:15.247Z</time>
      </trkpt>
      <trkpt lat="46.05933" lon="6.73012">
        <ele>1138</ele>
        <time>2024-05-14T14:44:31.723Z</time>
      </trkpt>
      <trkpt lat="46.05954" lon="6.73021">
        <ele>1138</ele>
        <time>2024-05-14T14:44:44.977Z</time>
      </trkpt>
      <trkpt lat="46.05992" lon="6.73028">
        <ele>1119</ele>
        <time>2024-05-14T14:45:05.256Z</time>
      </trkpt>
      <trkpt lat="46.06008" lon="6.73016">
        <ele>1111</ele>
        <time>2024-05-14T14:45:14.804Z</time>
      </trkpt>
      <trkpt lat="46.06041" lon="6.73016">
        <ele>1089</ele>
        <time>2024-05-14T14:45:32.273Z</time>
      </trkpt>
      <trkpt lat="46.06057" lon="6.73012">
        <ele>1084</ele>
        <time>2024-05-14T14:45:40.869Z</time>
      </trkpt>
      <trkpt lat="46.06086" lon="6.73037">
        <ele>1074</ele>
        <time>2024-05-14T14:45:58.757Z</time>
      </trkpt>
      <trkpt lat="46.0611" lon="6.73031">
        <ele>1066</ele>
        <time>2024-05-14T14:46:11.651Z</time>
      </trkpt>
      <trkpt lat="46.06169" lon="6.72967">
        <ele>1037</ele>
        <time>2024-05-14T14:46:50.741Z</time>
      </trkpt>
      <trkpt lat="46.0619" lon="6.72953">
        <ele>1030</ele>
        <time>2024-05-14T14:47:02.990Z</time>
      </trkpt>
      <trkpt lat="46.06217" lon="6.7294">
        <ele>1022</ele>
        <time>2024-05-14T14:47:18.059Z</time>
      </trkpt>
      <trkpt lat="46.06235" lon="6.72928">
        <ele>1016</ele>
        <time>2024-05-14T14:47:28.557Z</time>
      </trkpt>
      <trkpt lat="46.06255" lon="6.72931">
        <ele>1016</ele>
        <time>2024-05-14T14:47:40.722Z</time>
      </trkpt>
      <trkpt lat="46.06279" lon="6.72947">
        <ele>1014</ele>
        <time>2024-05-14T14:47:54.720Z</time>
      </trkpt>
      <trkpt lat="46.06302" lon="6.72959">
        <ele>1012</ele>
        <time>2024-05-14T14:48:07.668Z</time>
      </trkpt>
      <trkpt lat="46.06318" lon="6.72972">
        <ele>1010</ele>
        <time>2024-05-14T14:48:17.391Z</time>
      </trkpt>
      <trkpt lat="46.06354" lon="6.72987">
        <ele>1005</ele>
        <time>2024-05-14T14:48:37.228Z</time>
      </trkpt>
      <trkpt lat="46.0637" lon="6.73">
        <ele>1004</ele>
        <time>2024-05-14T14:48:46.951Z</time>
      </trkpt>
      <trkpt lat="46.06395" lon="6.72995">
        <ele>999</ele>
        <time>2024-05-14T14:49:00.311Z</time>
      </trkpt>
      <trkpt lat="46.06414" lon="6.73001">
        <ele>997</ele>
        <time>2024-05-14T14:49:10.608Z</time>
      </trkpt>
      <trkpt lat="46.06424" lon="6.73041">
        <ele>995</ele>
        <time>2024-05-14T14:49:26.224Z</time>
      </trkpt>
      <trkpt lat="46.0644" lon="6.73065">
        <ele>993</ele>
        <time>2024-05-14T14:49:38.448Z</time>
      </trkpt>
      <trkpt lat="46.06458" lon="6.73075">
        <ele>991</ele>
        <time>2024-05-14T14:49:48.660Z</time>
      </trkpt>
      <trkpt lat="46.06472" lon="6.73052">
        <ele>990</ele>
        <time>2024-05-14T14:49:59.898Z</time>
      </trkpt>
      <trkpt lat="46.06495" lon="6.73023">
        <ele>990</ele>
        <time>2024-05-14T14:50:18.385Z</time>
      </trkpt>
      <trkpt lat="46.06507" lon="6.73001">
        <ele>990</ele>
        <time>2024-05-14T14:50:30.132Z</time>
      </trkpt>
      <trkpt lat="46.06519" lon="6.72967">
        <ele>989</ele>
        <time>2024-05-14T14:50:44.424Z</time>
      </trkpt>
      <trkpt lat="46.06532" lon="6.72943">
        <ele>988</ele>
        <time>2024-05-14T14:50:55.607Z</time>
      </trkpt>
      <trkpt lat="46.06562" lon="6.72905">
        <ele>979</ele>
        <time>2024-05-14T14:51:16.749Z</time>
      </trkpt>
      <trkpt lat="46.06585" lon="6.72886">
        <ele>973</ele>
        <time>2024-05-14T14:51:30.782Z</time>
      </trkpt>
      <trkpt lat="46.0661" lon="6.72875">
        <ele>972</ele>
        <time>2024-05-14T14:51:44.877Z</time>
      </trkpt>
      <trkpt lat="46.06631" lon="6.72875">
        <ele>972</ele>
        <time>2024-05-14T14:51:57.581Z</time>
      </trkpt>
      <trkpt lat="46.06649" lon="6.72883">
        <ele>970</ele>
        <time>2024-05-14T14:52:07.553Z</time>
      </trkpt>
      <trkpt lat="46.06676" lon="6.72881">
        <ele>968</ele>
        <time>2024-05-14T14:52:21.864Z</time>
      </trkpt>
      <trkpt lat="46.06694" lon="6.7286">
        <ele>958</ele>
        <time>2024-05-14T14:52:34.123Z</time>
      </trkpt>
      <trkpt lat="46.06713" lon="6.72853">
        <ele>956</ele>
        <time>2024-05-14T14:52:44.504Z</time>
      </trkpt>
      <trkpt lat="46.06732" lon="6.72841">
        <ele>953</ele>
        <time>2024-05-14T14:52:55.485Z</time>
      </trkpt>
      <trkpt lat="46.06749" lon="6.72813">
        <ele>949</ele>
        <time>2024-05-14T14:53:09.150Z</time>
      </trkpt>
      <trkpt lat="46.06763" lon="6.72786">
        <ele>945</ele>
        <time>2024-05-14T14:53:21.529Z</time>
      </trkpt>
      <trkpt lat="46.06785" lon="6.72765">
        <ele>944</ele>
        <time>2024-05-14T14:53:35.773Z</time>
      </trkpt>
      <trkpt lat="46.06811" lon="6.72752">
        <ele>943</ele>
        <time>2024-05-14T14:53:50.697Z</time>
      </trkpt>
      <trkpt lat="46.06838" lon="6.72753">
        <ele>941</ele>
        <time>2024-05-14T14:54:04.994Z</time>
      </trkpt>
      <trkpt lat="46.06867" lon="6.72742">
        <ele>935</ele>
        <time>2024-05-14T14:54:20.868Z</time>
      </trkpt>
      <trkpt lat="46.06889" lon="6.72725">
        <ele>933</ele>
        <time>2024-05-14T14:54:34.082Z</time>
      </trkpt>
      <trkpt lat="46.06906" lon="6.72709">
        <ele>930</ele>
        <time>2024-05-14T14:54:44.829Z</time>
      </trkpt>
      <trkpt lat="46.06927" lon="6.72703">
        <ele>922</ele>
        <time>2024-05-14T14:54:56.162Z</time>
      </trkpt>
      <trkpt lat="46.06947" lon="6.72689">
        <ele>916</ele>
        <time>2024-05-14T14:55:07.932Z</time>
      </trkpt>
      <trkpt lat="46.06949" lon="6.72658">
        <ele>911</ele>
        <time>2024-05-14T14:55:19.366Z</time>
      </trkpt>
      <trkpt lat="46.06939" lon="6.72625">
        <ele>905</ele>
        <time>2024-05-14T14:55:32.591Z</time>
      </trkpt>
      <trkpt lat="46.06952" lon="6.7261">
        <ele>895</ele>
        <time>2024-05-14T14:55:41.406Z</time>
      </trkpt>
      <trkpt lat="46.06969" lon="6.72615">
        <ele>894</ele>
        <time>2024-05-14T14:55:50.590Z</time>
      </trkpt>
      <trkpt lat="46.06991" lon="6.72602">
        <ele>885</ele>
        <time>2024-05-14T14:56:03.176Z</time>
      </trkpt>
      <trkpt lat="46.07012" lon="6.7261">
        <ele>884</ele>
        <time>2024-05-14T14:56:14.675Z</time>
      </trkpt>
      <trkpt lat="46.07032" lon="6.72606">
        <ele>886</ele>
        <time>2024-05-14T14:56:31.574Z</time>
      </trkpt>
      <trkpt lat="46.07057" lon="6.72584">
        <ele>886</ele>
        <time>2024-05-14T14:56:49.294Z</time>
      </trkpt>
      <trkpt lat="46.07076" lon="6.72556">
        <ele>887</ele>
        <time>2024-05-14T14:57:07.753Z</time>
      </trkpt>
      <trkpt lat="46.07088" lon="6.72531">
        <ele>885</ele>
        <time>2024-05-14T14:57:18.918Z</time>
      </trkpt>
      <trkpt lat="46.07097" lon="6.72502">
        <ele>884</ele>
        <time>2024-05-14T14:57:30.585Z</time>
      </trkpt>
      <trkpt lat="46.07091" lon="6.72462">
        <ele>875</ele>
        <time>2024-05-14T14:57:45.614Z</time>
      </trkpt>
      <trkpt lat="46.07083" lon="6.7242">
        <ele>861</ele>
        <time>2024-05-14T14:58:01.609Z</time>
      </trkpt>
      <trkpt lat="46.07074" lon="6.72384">
        <ele>857</ele>
        <time>2024-05-14T14:58:15.662Z</time>
      </trkpt>
      <trkpt lat="46.07071" lon="6.72349">
        <ele>847</ele>
        <time>2024-05-14T14:58:28.614Z</time>
      </trkpt>
      <trkpt lat="46.07076" lon="6.72305">
        <ele>840</ele>
        <time>2024-05-14T14:58:44.988Z</time>
      </trkpt>
      <trkpt lat="46.07079" lon="6.72267">
        <ele>833</ele>
        <time>2024-05-14T14:58:59.034Z</time>
      </trkpt>
      <trkpt lat="46.07079" lon="6.72228">
        <ele>826</ele>
        <time>2024-05-14T14:59:13.356Z</time>
      </trkpt>
      <trkpt lat="46.0708" lon="6.72188">
        <ele>824</ele>
        <time>2024-05-14T14:59:28.056Z</time>
      </trkpt>
      <trkpt lat="46.07082" lon="6.72145">
        <ele>824</ele>
        <time>2024-05-14T14:59:46.144Z</time>
      </trkpt>
      <trkpt lat="46.07089" lon="6.72114">
        <ele>824</ele>
        <time>2024-05-14T14:59:59.827Z</time>
      </trkpt>
      <trkpt lat="46.07103" lon="6.72088">
        <ele>822</ele>
        <time>2024-05-14T15:00:11.914Z</time>
      </trkpt>
      <trkpt lat="46.0711" lon="6.72065">
        <ele>821</ele>
        <time>2024-05-14T15:00:21.137Z</time>
      </trkpt>
      <trkpt lat="46.07109" lon="6.72035">
        <ele>821</ele>
        <time>2024-05-14T15:00:33.743Z</time>
      </trkpt>
      <trkpt lat="46.07115" lon="6.72009">
        <ele>820</ele>
        <time>2024-05-14T15:00:43.806Z</time>
      </trkpt>
      <trkpt lat="46.07118" lon="6.71973">
        <ele>819</ele>
        <time>2024-05-14T15:00:57.311Z</time>
      </trkpt>
      <trkpt lat="46.07129" lon="6.71945">
        <ele>817</ele>
        <time>2024-05-14T15:01:09.128Z</time>
      </trkpt>
      <trkpt lat="46.0715" lon="6.71935">
        <ele>817</ele>
        <time>2024-05-14T15:01:22.508Z</time>
      </trkpt>
      <trkpt lat="46.07173" lon="6.71924">
        <ele>816</ele>
        <time>2024-05-14T15:01:35.460Z</time>
      </trkpt>
      <trkpt lat="46.07195" lon="6.71926">
        <ele>816</ele>
        <time>2024-05-14T15:01:48.796Z</time>
      </trkpt>
      <trkpt lat="46.07215" lon="6.71929">
        <ele>816</ele>
        <time>2024-05-14T15:02:00.961Z</time>
      </trkpt>
      <trkpt lat="46.07243" lon="6.71924">
        <ele>813</ele>
        <time>2024-05-14T15:02:15.896Z</time>
      </trkpt>
      <trkpt lat="46.07265" lon="6.71932">
        <ele>809</ele>
        <time>2024-05-14T15:02:27.907Z</time>
      </trkpt>
      <trkpt lat="46.07286" lon="6.71939">
        <ele>802</ele>
        <time>2024-05-14T15:02:39.316Z</time>
      </trkpt>
      <trkpt lat="46.07312" lon="6.71941">
        <ele>791</ele>
        <time>2024-05-14T15:02:53.099Z</time>
      </trkpt>
      <trkpt lat="46.0734" lon="6.71924">
        <ele>783</ele>
        <time>2024-05-14T15:03:09.182Z</time>
      </trkpt>
      <trkpt lat="46.07356" lon="6.71925">
        <ele>781</ele>
        <time>2024-05-14T15:03:17.660Z</time>
      </trkpt>
      <trkpt lat="46.07372" lon="6.71953">
        <ele>778</ele>
        <time>2024-05-14T15:03:30.981Z</time>
      </trkpt>
      <trkpt lat="46.07356" lon="6.72062">
        <ele>773</ele>
        <time>2024-05-14T15:04:11.895Z</time>
      </trkpt>
      <trkpt lat="46.07354" lon="6.72124">
        <ele>764</ele>
        <time>2024-05-14T15:04:34.688Z</time>
      </trkpt>
      <trkpt lat="46.07358" lon="6.72165">
        <ele>757</ele>
        <time>2024-05-14T15:04:49.893Z</time>
      </trkpt>
      <trkpt lat="46.07371" lon="6.72169">
        <ele>748</ele>
        <time>2024-05-14T15:04:56.929Z</time>
      </trkpt>
      <trkpt lat="46.07391" lon="6.72155">
        <ele>744</ele>
        <time>2024-05-14T15:05:08.699Z</time>
      </trkpt>
      <trkpt lat="46.07413" lon="6.72172">
        <ele>734</ele>
        <time>2024-05-14T15:05:21.912Z</time>
      </trkpt>
      <trkpt lat="46.07421" lon="6.72201">
        <ele>725</ele>
        <time>2024-05-14T15:05:33.373Z</time>
      </trkpt>
      <trkpt lat="46.07416" lon="6.72228">
        <ele>724</ele>
        <time>2024-05-14T15:05:43.635Z</time>
      </trkpt>
      <trkpt lat="46.07422" lon="6.72236">
        <ele>720</ele>
        <time>2024-05-14T15:05:47.961Z</time>
      </trkpt>
      <trkpt lat="46.07444" lon="6.7221">
        <ele>719</ele>
        <time>2024-05-14T15:06:03.443Z</time>
      </trkpt>
      <trkpt lat="46.07459" lon="6.72193">
        <ele>719</ele>
        <time>2024-05-14T15:06:14.986Z</time>
      </trkpt>
      <trkpt lat="46.07478" lon="6.72182">
        <ele>715</ele>
        <time>2024-05-14T15:06:25.825Z</time>
      </trkpt>
      <trkpt lat="46.07493" lon="6.72155">
        <ele>715</ele>
        <time>2024-05-14T15:06:40.342Z</time>
      </trkpt>
      <trkpt lat="46.07508" lon="6.72139">
        <ele>718</ele>
        <time>2024-05-14T15:06:59.867Z</time>
      </trkpt>
      <trkpt lat="46.07529" lon="6.72109">
        <ele>710</ele>
        <time>2024-05-14T15:07:15.518Z</time>
      </trkpt>
      <trkpt lat="46.07543" lon="6.72067">
        <ele>710</ele>
        <time>2024-05-14T15:07:35.073Z</time>
      </trkpt>
      <trkpt lat="46.07558" lon="6.7202">
        <ele>711</ele>
        <time>2024-05-14T15:07:58.765Z</time>
      </trkpt>
      <trkpt lat="46.07569" lon="6.7199">
        <ele>711</ele>
        <time>2024-05-14T15:08:13.006Z</time>
      </trkpt>
      <trkpt lat="46.0758" lon="6.71956">
        <ele>707</ele>
        <time>2024-05-14T15:08:26.783Z</time>
      </trkpt>
      <trkpt lat="46.07586" lon="6.71923">
        <ele>707</ele>
        <time>2024-05-14T15:08:41.100Z</time>
      </trkpt>
      <trkpt lat="46.07587" lon="6.71889">
        <ele>707</ele>
        <time>2024-05-14T15:08:55.381Z</time>
      </trkpt>
      <trkpt lat="46.07592" lon="6.71855">
        <ele>698</ele>
        <time>2024-05-14T15:09:08.144Z</time>
      </trkpt>
      <trkpt lat="46.07606" lon="6.71847">
        <ele>696</ele>
        <time>2024-05-14T15:09:16.116Z</time>
      </trkpt>
      <trkpt lat="46.07628" lon="6.71867">
        <ele>695</ele>
        <time>2024-05-14T15:09:30.133Z</time>
      </trkpt>
      <trkpt lat="46.07636" lon="6.71894">
        <ele>695</ele>
        <time>2024-05-14T15:09:42.455Z</time>
      </trkpt>
      <trkpt lat="46.07629" lon="6.71907">
        <ele>696</ele>
        <time>2024-05-14T15:09:51.638Z</time>
      </trkpt>
      <trkpt lat="46.0763" lon="6.7188">
        <ele>694</ele>
        <time>2024-05-14T15:10:01.567Z</time>
      </trkpt>
      <trkpt lat="46.07637" lon="6.71849">
        <ele>692</ele>
        <time>2024-05-14T15:10:13.538Z</time>
      </trkpt>
      <trkpt lat="46.07647" lon="6.71823">
        <ele>692</ele>
        <time>2024-05-14T15:10:26.015Z</time>
      </trkpt>
      <trkpt lat="46.07649" lon="6.71795">
        <ele>692</ele>
        <time>2024-05-14T15:10:37.827Z</time>
      </trkpt>
      <trkpt lat="46.07656" lon="6.71744">
        <ele>692</ele>
        <time>2024-05-14T15:10:59.645Z</time>
      </trkpt>
      <trkpt lat="46.0766" lon="6.71716">
        <ele>692</ele>
        <time>2024-05-14T15:11:11.643Z</time>
      </trkpt>
      <trkpt lat="46.07665" lon="6.71673">
        <ele>692</ele>
        <time>2024-05-14T15:11:29.940Z</time>
      </trkpt>
      <trkpt lat="46.07669" lon="6.71632">
        <ele>690</ele>
        <time>2024-05-14T15:11:45.144Z</time>
      </trkpt>
      <trkpt lat="46.07678" lon="6.71593">
        <ele>690</ele>
        <time>2024-05-14T15:12:02.393Z</time>
      </trkpt>
      <trkpt lat="46.0769" lon="6.71553">
        <ele>690</ele>
        <time>2024-05-14T15:12:20.682Z</time>
      </trkpt>
      <trkpt lat="46.077" lon="6.71518">
        <ele>691</ele>
        <time>2024-05-14T15:12:38.594Z</time>
      </trkpt>
      <trkpt lat="46.07715" lon="6.71492">
        <ele>691</ele>
        <time>2024-05-14T15:12:52.785Z</time>
      </trkpt>
      <trkpt lat="46.07735" lon="6.71467">
        <ele>689</ele>
        <time>2024-05-14T15:13:06.798Z</time>
      </trkpt>
      <trkpt lat="46.07735" lon="6.71442">
        <ele>689</ele>
        <time>2024-05-14T15:13:17.290Z</time>
      </trkpt>
      <trkpt lat="46.07749" lon="6.71423">
        <ele>689</ele>
        <time>2024-05-14T15:13:28.922Z</time>
      </trkpt>
      <trkpt lat="46.07767" lon="6.71401">
        <ele>689</ele>
        <time>2024-05-14T15:13:43.199Z</time>
      </trkpt>
      <trkpt lat="46.07783" lon="6.7139">
        <ele>689</ele>
        <time>2024-05-14T15:13:53.923Z</time>
      </trkpt>
      <trkpt lat="46.07789" lon="6.71364">
        <ele>689</ele>
        <time>2024-05-14T15:14:05.422Z</time>
      </trkpt>
      <trkpt lat="46.07798" lon="6.71333">
        <ele>689</ele>
        <time>2024-05-14T15:14:19.524Z</time>
      </trkpt>
      <trkpt lat="46.07808" lon="6.71299">
        <ele>689</ele>
        <time>2024-05-14T15:14:35.022Z</time>
      </trkpt>
      <trkpt lat="46.07816" lon="6.71272">
        <ele>689</ele>
        <time>2024-05-14T15:14:47.343Z</time>
      </trkpt>
      <trkpt lat="46.07832" lon="6.7124">
        <ele>688</ele>
        <time>2024-05-14T15:15:02.173Z</time>
      </trkpt>
      <trkpt lat="46.07846" lon="6.71215">
        <ele>688</ele>
        <time>2024-05-14T15:15:15.656Z</time>
      </trkpt>
      <trkpt lat="46.07861" lon="6.71192">
        <ele>688</ele>
        <time>2024-05-14T15:15:28.904Z</time>
      </trkpt>
      <trkpt lat="46.07874" lon="6.71165">
        <ele>688</ele>
        <time>2024-05-14T15:15:42.697Z</time>
      </trkpt>
      <trkpt lat="46.07876" lon="6.71138">
        <ele>687</ele>
        <time>2024-05-14T15:15:52.668Z</time>
      </trkpt>
      <trkpt lat="46.07882" lon="6.71103">
        <ele>687</ele>
        <time>2024-05-14T15:16:07.797Z</time>
      </trkpt>
      <trkpt lat="46.07885" lon="6.71076">
        <ele>687</ele>
        <time>2024-05-14T15:16:19.272Z</time>
      </trkpt>
      <trkpt lat="46.07891" lon="6.71042">
        <ele>686</ele>
        <time>2024-05-14T15:16:32.287Z</time>
      </trkpt>
      <trkpt lat="46.07903" lon="6.71017">
        <ele>686</ele>
        <time>2024-05-14T15:16:45.045Z</time>
      </trkpt>
      <trkpt lat="46.07922" lon="6.71013">
        <ele>686</ele>
        <time>2024-05-14T15:16:56.661Z</time>
      </trkpt>
      <trkpt lat="46.07945" lon="6.71003">
        <ele>686</ele>
        <time>2024-05-14T15:17:11.194Z</time>
      </trkpt>
      <trkpt lat="46.07956" lon="6.70981">
        <ele>686</ele>
        <time>2024-05-14T15:17:22.575Z</time>
      </trkpt>
      <trkpt lat="46.07971" lon="6.70941">
        <ele>686</ele>
        <time>2024-05-14T15:17:41.657Z</time>
      </trkpt>
      <trkpt lat="46.0798" lon="6.70916">
        <ele>686</ele>
        <time>2024-05-14T15:17:53.477Z</time>
      </trkpt>
      <trkpt lat="46.08002" lon="6.70887">
        <ele>685</ele>
        <time>2024-05-14T15:18:09.776Z</time>
      </trkpt>
      <trkpt lat="46.08026" lon="6.70881">
        <ele>685</ele>
        <time>2024-05-14T15:18:24.512Z</time>
      </trkpt>
      <trkpt lat="46.08046" lon="6.70884">
        <ele>685</ele>
        <time>2024-05-14T15:18:36.677Z</time>
      </trkpt>
      <trkpt lat="46.08069" lon="6.70879">
        <ele>685</ele>
        <time>2024-05-14T15:18:50.748Z</time>
      </trkpt>
      <trkpt lat="46.08081" lon="6.70895">
        <ele>685</ele>
        <time>2024-05-14T15:19:00.637Z</time>
      </trkpt>
      <trkpt lat="46.08095" lon="6.70913">
        <ele>685</ele>
        <time>2024-05-14T15:19:11.986Z</time>
      </trkpt>
      <trkpt lat="46.08109" lon="6.70937">
        <ele>685</ele>
        <time>2024-05-14T15:19:25.145Z</time>
      </trkpt>
      <trkpt lat="46.08128" lon="6.70956">
        <ele>685</ele>
        <time>2024-05-14T15:19:39.134Z</time>
      </trkpt>
      <trkpt lat="46.08138" lon="6.70983">
        <ele>685</ele>
        <time>2024-05-14T15:19:51.978Z</time>
      </trkpt>
      <trkpt lat="46.08139" lon="6.71021">
        <ele>685</ele>
        <time>2024-05-14T15:20:07.935Z</time>
      </trkpt>
      <trkpt lat="46.08132" lon="6.71058">
        <ele>685</ele>
        <time>2024-05-14T15:20:24.029Z</time>
      </trkpt>
      <trkpt lat="46.08119" lon="6.71078">
        <ele>685</ele>
        <time>2024-05-14T15:20:35.530Z</time>
      </trkpt>
      <trkpt lat="46.08107" lon="6.711">
        <ele>685</ele>
        <time>2024-05-14T15:20:47.275Z</time>
      </trkpt>
      <trkpt lat="46.08086" lon="6.71118">
        <ele>685</ele>
        <time>2024-05-14T15:21:02.055Z</time>
      </trkpt>
      <trkpt lat="46.08074" lon="6.7115">
        <ele>686</ele>
        <time>2024-05-14T15:21:19.354Z</time>
      </trkpt>
      <trkpt lat="46.08056" lon="6.71182">
        <ele>686</ele>
        <time>2024-05-14T15:21:36.642Z</time>
      </trkpt>
      <trkpt lat="46.08036" lon="6.712">
        <ele>686</ele>
        <time>2024-05-14T15:21:50.906Z</time>
      </trkpt>
      <trkpt lat="46.08013" lon="6.71211">
        <ele>687</ele>
        <time>2024-05-14T15:22:07.607Z</time>
      </trkpt>
      <trkpt lat="46.07991" lon="6.71223">
        <ele>687</ele>
        <time>2024-05-14T15:22:21.838Z</time>
      </trkpt>
      <trkpt lat="46.07972" lon="6.71237">
        <ele>687</ele>
        <time>2024-05-14T15:22:34.746Z</time>
      </trkpt>
      <trkpt lat="46.07952" lon="6.71269">
        <ele>688</ele>
        <time>2024-05-14T15:22:54.827Z</time>
      </trkpt>
      <trkpt lat="46.0794" lon="6.71306">
        <ele>688</ele>
        <time>2024-05-14T15:23:11.967Z</time>
      </trkpt>
      <trkpt lat="46.07936" lon="6.71338">
        <ele>688</ele>
        <time>2024-05-14T15:23:25.612Z</time>
      </trkpt>
    </trkseg>
  </trk>
</gpx>